Observation data for Estelline on 07/04/2020      Previous  Date       Current Mesonet Observations  Soil Data  Daily Summary Page  Observations in Plain Language
KES1 040500Z 15007KT 29/16 A2999 RMK A01 T02910164  RH  046%=      5-min Rain = 0
KES1 040501Z 15008KT 29/16 A2999 RMK A01 T02910164  RH  046%=      5-min Rain = 0
KES1 040502Z 15007KT 29/16 A2999 RMK A01 T02910163  RH  046%=      5-min Rain = 0
KES1 040503Z 15007KT 29/16 A2999 RMK A01 T02910163  RH  046%=      5-min Rain = 0
KES1 040504Z 15007KT 29/16 A2999 RMK A01 T02900163  RH  046%=      5-min Rain = 0
KES1 040505Z 14007KT 29/16 A2999 RMK A01 T02900163  RH  046%=      5-min Rain = 0
KES1 040506Z 14007KT 29/16 A2999 RMK A01 T02890163  RH  046%=      5-min Rain = 0
KES1 040507Z 15007KT 29/16 A2999 RMK A01 T02890163  RH  046%=      5-min Rain = 0
KES1 040508Z 15007KT 29/16 A2999 RMK A01 T02890162  RH  046%=      5-min Rain = 0
KES1 040509Z 15007KT 29/16 A2999 RMK A01 T02890162  RH  046%=      5-min Rain = 0
KES1 040510Z 15008KT 29/16 A2999 RMK A01 T02890162  RH  046%=      5-min Rain = 0
KES1 040511Z 15008KT 29/16 A2999 RMK A01 T02880161  RH  046%=      5-min Rain = 0
KES1 040512Z 15008KT 29/16 A2999 RMK A01 T02880161  RH  046%=      5-min Rain = 0
KES1 040513Z 15008KT 29/16 A2999 RMK A01 T02890161  RH  046%=      5-min Rain = 0
KES1 040514Z 15007KT 29/16 A2999 RMK A01 T02890160  RH  046%=      5-min Rain = 0
KES1 040515Z 15007KT 29/16 A2999 RMK A01 T02880160  RH  046%=      5-min Rain = 0
KES1 040516Z 15008KT 29/16 A2999 RMK A01 T02880160  RH  046%=      5-min Rain = 0
KES1 040517Z 15007KT 29/16 A2999 RMK A01 T02880160  RH  046%=      5-min Rain = 0
KES1 040518Z 15007KT 29/16 A2999 RMK A01 T02880160  RH  046%=      5-min Rain = 0
KES1 040519Z 16008KT 29/16 A2999 RMK A01 T02880160  RH  046%=      5-min Rain = 0
KES1 040520Z 15008KT 29/16 A2999 RMK A01 T02880160  RH  046%=      5-min Rain = 0
KES1 040521Z 16007KT 29/16 A2999 RMK A01 T02880160  RH  046%=      5-min Rain = 0
KES1 040522Z 16008KT 29/16 A2999 RMK A01 T02870161  RH  046%=      5-min Rain = 0
KES1 040523Z 16007KT 29/16 A2999 RMK A01 T02870161  RH  047%=      5-min Rain = 0
KES1 040524Z 16007KT 29/16 A2999 RMK A01 T02860161  RH  047%=      5-min Rain = 0
KES1 040525Z 16007KT 29/16 A2999 RMK A01 T02850161  RH  047%=      5-min Rain = 0
KES1 040526Z 16008KT 28/16 A2999 RMK A01 T02840162  RH  047%=      5-min Rain = 0
KES1 040527Z 16008KT 28/16 A2999 RMK A01 T02830161  RH  048%=      5-min Rain = 0
KES1 040528Z 16007KT 28/16 A2999 RMK A01 T02830162  RH  048%=      5-min Rain = 0
KES1 040529Z 16007KT 28/16 A2999 RMK A01 T02820162  RH  048%=      5-min Rain = 0
KES1 040530Z 16007KT 28/16 A2999 RMK A01 T02820162  RH  048%=      5-min Rain = 0
KES1 040531Z 16007KT 28/16 A2999 RMK A01 T02810162  RH  048%=      5-min Rain = 0
KES1 040532Z 16007KT 28/16 A2999 RMK A01 T02810162  RH  048%=      5-min Rain = 0
KES1 040533Z 16008KT 28/16 A2999 RMK A01 T02810162  RH  048%=      5-min Rain = 0
KES1 040534Z 16007KT 28/16 A2999 RMK A01 T02810162  RH  048%=      5-min Rain = 0
KES1 040535Z 16007KT 28/16 A2999 RMK A01 T02810162  RH  048%=      5-min Rain = 0
KES1 040536Z 15008KT 28/16 A2999 RMK A01 T02800162  RH  049%=      5-min Rain = 0
KES1 040537Z 15008KT 28/16 A2999 RMK A01 T02800162  RH  049%=      5-min Rain = 0
KES1 040538Z 15008KT 28/16 A2999 RMK A01 T02810163  RH  049%=      5-min Rain = 0
KES1 040539Z 15007KT 28/16 A2999 RMK A01 T02800163  RH  049%=      5-min Rain = 0
KES1 040540Z 15007KT 28/16 A2999 RMK A01 T02800163  RH  049%=      5-min Rain = 0
KES1 040541Z 15007KT 28/16 A2999 RMK A01 T02790163  RH  049%=      5-min Rain = 0
KES1 040542Z 15006KT 28/16 A2999 RMK A01 T02790163  RH  049%=      5-min Rain = 0
KES1 040543Z 15007KT 28/16 A2999 RMK A01 T02790164  RH  050%=      5-min Rain = 0
KES1 040544Z 15007KT 28/16 A2999 RMK A01 T02780164  RH  050%=      5-min Rain = 0
KES1 040545Z 15007KT 28/16 A2999 RMK A01 T02780164  RH  050%=      5-min Rain = 0
KES1 040546Z 15007KT 28/16 A2999 RMK A01 T02770164  RH  050%=      5-min Rain = 0
KES1 040547Z 15007KT 28/16 A2999 RMK A01 T02760164  RH  050%=      5-min Rain = 0
KES1 040548Z 15006KT 28/16 A2999 RMK A01 T02760164  RH  051%=      5-min Rain = 0
KES1 040549Z 15007KT 28/16 A2999 RMK A01 T02750164  RH  051%=      5-min Rain = 0
KES1 040550Z 15007KT 27/17 A2999 RMK A01 T02740165  RH  051%=      5-min Rain = 0
KES1 040551Z 15006KT 27/16 A2999 RMK A01 T02730164  RH  051%=      5-min Rain = 0
KES1 040552Z 15006KT 27/17 A2999 RMK A01 T02730165  RH  052%=      5-min Rain = 0
KES1 040553Z 15007KT 27/17 A2999 RMK A01 T02720165  RH  052%=      5-min Rain = 0
KES1 040554Z 15007KT 27/17 A2999 RMK A01 T02720165  RH  052%=      5-min Rain = 0
KES1 040555Z 15006KT 27/17 A2999 RMK A01 T02720165  RH  052%=      5-min Rain = 0
KES1 040556Z 15007KT 27/17 A2999 RMK A01 T02710165  RH  052%=      5-min Rain = 0
KES1 040557Z 15006KT 27/17 A2999 RMK A01 T02710165  RH  052%=      5-min Rain = 0
KES1 040558Z 15006KT 27/17 A2999 RMK A01 T02710165  RH  052%=      5-min Rain = 0
KES1 040559Z 16006KT 27/17 A2999 RMK A01 T02710165  RH  053%=      5-min Rain = 0
KES1 040600Z 16006KT 27/17 A2999 RMK A01 T02700165  RH  053%=      5-min Rain = 0
KES1 040601Z 16006KT 27/17 A2999 RMK A01 T02700165  RH  053%=      5-min Rain = 0
KES1 040602Z 16006KT 27/17 A2999 RMK A01 T02690165  RH  053%=      5-min Rain = 0
KES1 040603Z 16007KT 27/17 A2999 RMK A01 T02690165  RH  053%=      5-min Rain = 0
KES1 040604Z 16007KT 27/17 A2999 RMK A01 T02690165  RH  053%=      5-min Rain = 0
KES1 040605Z 16008KT 27/17 A2999 RMK A01 T02700165  RH  053%=      5-min Rain = 0
KES1 040606Z 16007KT 27/17 A2999 RMK A01 T02710165  RH  052%=      5-min Rain = 0
KES1 040607Z 16007KT 27/17 A2999 RMK A01 T02720165  RH  052%=      5-min Rain = 0
KES1 040608Z 17007KT 27/17 A2999 RMK A01 T02720165  RH  052%=      5-min Rain = 0
KES1 040609Z 16008KT 27/17 A2999 RMK A01 T02720165  RH  052%=      5-min Rain = 0
KES1 040610Z 16008KT 27/17 A2999 RMK A01 T02730165  RH  052%=      5-min Rain = 0
KES1 040611Z 17007KT 27/17 A2999 RMK A01 T02740165  RH  051%=      5-min Rain = 0
KES1 040612Z 17007KT 28/17 A2999 RMK A01 T02750165  RH  051%=      5-min Rain = 0
KES1 040613Z 17007KT 28/17 A2999 RMK A01 T02750165  RH  051%=      5-min Rain = 0
KES1 040614Z 17006KT 28/17 A2999 RMK A01 T02750165  RH  051%=      5-min Rain = 0
KES1 040615Z 17007KT 28/17 A2999 RMK A01 T02760165  RH  051%=      5-min Rain = 0
KES1 040616Z 17007KT 28/17 A2999 RMK A01 T02760165  RH  051%=      5-min Rain = 0
KES1 040617Z 17007KT 28/17 A2999 RMK A01 T02760165  RH  051%=      5-min Rain = 0
KES1 040618Z 16007KT 28/17 A2998 RMK A01 T02760165  RH  051%=      5-min Rain = 0
KES1 040619Z 16008KT 28/16 A2998 RMK A01 T02760164  RH  051%=      5-min Rain = 0
KES1 040620Z 16008KT 28/17 A2998 RMK A01 T02770165  RH  051%=      5-min Rain = 0
KES1 040621Z 16008KT 28/16 A2998 RMK A01 T02760164  RH  050%=      5-min Rain = 0
KES1 040622Z 16007KT 28/17 A2998 RMK A01 T02770165  RH  050%=      5-min Rain = 0
KES1 040623Z 16009KT 28/17 A2998 RMK A01 T02770165  RH  050%=      5-min Rain = 0
KES1 040624Z 16008KT 28/17 A2998 RMK A01 T02770165  RH  050%=      5-min Rain = 0
KES1 040625Z 16008KT 28/17 A2998 RMK A01 T02770165  RH  050%=      5-min Rain = 0
KES1 040626Z 16007KT 28/16 A2998 RMK A01 T02770164  RH  050%=      5-min Rain = 0
KES1 040627Z 16008KT 28/17 A2998 RMK A01 T02770165  RH  050%=      5-min Rain = 0
KES1 040628Z 16007KT 28/16 A2998 RMK A01 T02770164  RH  050%=      5-min Rain = 0
KES1 040629Z 16008KT 28/17 A2998 RMK A01 T02770165  RH  050%=      5-min Rain = 0
KES1 040630Z 17007KT 28/17 A2998 RMK A01 T02770165  RH  051%=      5-min Rain = 0
KES1 040631Z 17008KT 28/16 A2998 RMK A01 T02760164  RH  051%=      5-min Rain = 0
KES1 040632Z 17007KT 28/17 A2998 RMK A01 T02760165  RH  051%=      5-min Rain = 0
KES1 040633Z 17007KT 28/17 A2998 RMK A01 T02760165  RH  051%=      5-min Rain = 0
KES1 040634Z 16007KT 28/16 A2998 RMK A01 T02750164  RH  051%=      5-min Rain = 0
KES1 040635Z 17008KT 28/17 A2998 RMK A01 T02750165  RH  051%=      5-min Rain = 0
KES1 040636Z 17007KT 28/16 A2998 RMK A01 T02750164  RH  051%=      5-min Rain = 0
KES1 040637Z 16008KT 28/16 A2998 RMK A01 T02750164  RH  051%=      5-min Rain = 0
KES1 040638Z 17007KT 28/17 A2998 RMK A01 T02750165  RH  051%=      5-min Rain = 0
KES1 040639Z 17007KT 28/16 A2998 RMK A01 T02750164  RH  051%=      5-min Rain = 0
KES1 040640Z 17009KT 28/17 A2998 RMK A01 T02750165  RH  051%=      5-min Rain = 0
KES1 040641Z 17008KT 28/17 A2998 RMK A01 T02750165  RH  051%=      5-min Rain = 0
KES1 040642Z 16007KT 28/17 A2998 RMK A01 T02750165  RH  051%=      5-min Rain = 0
KES1 040643Z 17008KT 28/17 A2998 RMK A01 T02750165  RH  051%=      5-min Rain = 0
KES1 040644Z 17008KT 28/17 A2998 RMK A01 T02750165  RH  051%=      5-min Rain = 0
KES1 040645Z 17008KT 28/17 A2998 RMK A01 T02760165  RH  051%=      5-min Rain = 0
KES1 040646Z 17007KT 28/17 A2998 RMK A01 T02760165  RH  051%=      5-min Rain = 0
KES1 040647Z 17009KT 28/17 A2998 RMK A01 T02760165  RH  051%=      5-min Rain = 0
KES1 040648Z 17007KT 28/17 A2998 RMK A01 T02750165  RH  051%=      5-min Rain = 0
KES1 040649Z 17007KT 28/17 A2998 RMK A01 T02750165  RH  051%=      5-min Rain = 0
KES1 040650Z 17007KT 27/17 A2998 RMK A01 T02740165  RH  051%=      5-min Rain = 0
KES1 040651Z 17007KT 27/17 A2998 RMK A01 T02740165  RH  051%=      5-min Rain = 0
KES1 040652Z 17007KT 27/17 A2998 RMK A01 T02740165  RH  051%=      5-min Rain = 0
KES1 040653Z 17007KT 27/17 A2998 RMK A01 T02740165  RH  051%=      5-min Rain = 0
KES1 040654Z 17007KT 27/17 A2998 RMK A01 T02740165  RH  051%=      5-min Rain = 0
KES1 040655Z 16008KT 27/17 A2998 RMK A01 T02730165  RH  051%=      5-min Rain = 0
KES1 040656Z 17008KT 27/17 A2998 RMK A01 T02730165  RH  052%=      5-min Rain = 0
KES1 040657Z 16008KT 27/17 A2998 RMK A01 T02730165  RH  051%=      5-min Rain = 0
KES1 040658Z 17006KT 27/17 A2998 RMK A01 T02730165  RH  052%=      5-min Rain = 0
KES1 040659Z 16008KT 27/17 A2998 RMK A01 T02730165  RH  052%=      5-min Rain = 0
KES1 040700Z 17007KT 27/17 A2998 RMK A01 T02730165  RH  052%=      5-min Rain = 0
KES1 040701Z 16009KT 27/17 A2998 RMK A01 T02730165  RH  052%=      5-min Rain = 0
KES1 040702Z 16008KT 27/17 A2998 RMK A01 T02730165  RH  052%=      5-min Rain = 0
KES1 040703Z 16009KT 27/17 A2998 RMK A01 T02730165  RH  052%=      5-min Rain = 0
KES1 040704Z 16009KT 27/17 A2998 RMK A01 T02730165  RH  052%=      5-min Rain = 0
KES1 040705Z 16008KT 27/17 A2998 RMK A01 T02730165  RH  052%=      5-min Rain = 0
KES1 040706Z 16008KT 27/17 A2998 RMK A01 T02730165  RH  052%=      5-min Rain = 0
KES1 040707Z 16008KT 27/17 A2998 RMK A01 T02730165  RH  052%=      5-min Rain = 0
KES1 040708Z 16008KT 27/17 A2998 RMK A01 T02730165  RH  052%=      5-min Rain = 0
KES1 040709Z 16008KT 27/17 A2998 RMK A01 T02730165  RH  052%=      5-min Rain = 0
KES1 040710Z 16007KT 27/17 A2998 RMK A01 T02730165  RH  052%=      5-min Rain = 0
KES1 040711Z 17008KT 27/17 A2998 RMK A01 T02730165  RH  052%=      5-min Rain = 0
KES1 040712Z 16008KT 27/17 A2998 RMK A01 T02730165  RH  052%=      5-min Rain = 0
KES1 040713Z 16007KT 27/17 A2998 RMK A01 T02720165  RH  052%=      5-min Rain = 0
KES1 040714Z 16007KT 27/17 A2998 RMK A01 T02720165  RH  052%=      5-min Rain = 0
KES1 040715Z 17007KT 27/17 A2998 RMK A01 T02720165  RH  052%=      5-min Rain = 0
KES1 040716Z 16006KT 27/17 A2998 RMK A01 T02710165  RH  052%=      5-min Rain = 0
KES1 040717Z 16007KT 27/17 A2998 RMK A01 T02710165  RH  052%=      5-min Rain = 0
KES1 040718Z 16007KT 27/17 A2998 RMK A01 T02700165  RH  052%=      5-min Rain = 0
KES1 040719Z 16006KT 27/17 A2998 RMK A01 T02700165  RH  053%=      5-min Rain = 0
KES1 040720Z 16006KT 27/17 A2998 RMK A01 T02690165  RH  053%=      5-min Rain = 0
KES1 040721Z 17006KT 27/17 A2998 RMK A01 T02680165  RH  053%=      5-min Rain = 0
KES1 040722Z 16007KT 27/16 A2998 RMK A01 T02680164  RH  053%=      5-min Rain = 0
KES1 040723Z 16007KT 27/16 A2998 RMK A01 T02670164  RH  053%=      5-min Rain = 0
KES1 040724Z 16006KT 27/16 A2998 RMK A01 T02660164  RH  053%=      5-min Rain = 0
KES1 040725Z 16007KT 27/16 A2998 RMK A01 T02660164  RH  054%=      5-min Rain = 0
KES1 040726Z 16007KT 27/16 A2998 RMK A01 T02650164  RH  054%=      5-min Rain = 0
KES1 040727Z 16007KT 27/16 A2998 RMK A01 T02660164  RH  054%=      5-min Rain = 0
KES1 040728Z 16006KT 27/16 A2998 RMK A01 T02650164  RH  054%=      5-min Rain = 0
KES1 040729Z 16006KT 27/16 A2998 RMK A01 T02650164  RH  054%=      5-min Rain = 0
KES1 040730Z 16006KT 26/16 A2998 RMK A01 T02640164  RH  054%=      5-min Rain = 0
KES1 040731Z 16006KT 26/16 A2998 RMK A01 T02640164  RH  054%=      5-min Rain = 0
KES1 040732Z 16006KT 26/16 A2998 RMK A01 T02630164  RH  055%=      5-min Rain = 0
KES1 040733Z 16007KT 26/16 A2998 RMK A01 T02630164  RH  055%=      5-min Rain = 0
KES1 040734Z 16006KT 26/16 A2998 RMK A01 T02630164  RH  055%=      5-min Rain = 0
KES1 040735Z 16006KT 26/16 A2998 RMK A01 T02620164  RH  055%=      5-min Rain = 0
KES1 040736Z 16006KT 26/17 A2998 RMK A01 T02620165  RH  055%=      5-min Rain = 0
KES1 040737Z 16006KT 26/17 A2998 RMK A01 T02620165  RH  055%=      5-min Rain = 0
KES1 040738Z 16007KT 26/17 A2998 RMK A01 T02620165  RH  055%=      5-min Rain = 0
KES1 040739Z 16007KT 26/17 A2998 RMK A01 T02620165  RH  055%=      5-min Rain = 0
KES1 040740Z 16006KT 26/17 A2998 RMK A01 T02620165  RH  055%=      5-min Rain = 0
KES1 040741Z 16006KT 26/17 A2998 RMK A01 T02620165  RH  055%=      5-min Rain = 0
KES1 040742Z 16006KT 26/17 A2998 RMK A01 T02620165  RH  055%=      5-min Rain = 0
KES1 040743Z 16006KT 26/17 A2998 RMK A01 T02620166  RH  055%=      5-min Rain = 0
KES1 040744Z 17005KT 26/17 A2998 RMK A01 T02620165  RH  055%=      5-min Rain = 0
KES1 040745Z 17006KT 26/17 A2998 RMK A01 T02620165  RH  055%=      5-min Rain = 0
KES1 040746Z 17006KT 26/17 A2998 RMK A01 T02620165  RH  055%=      5-min Rain = 0
KES1 040747Z 17007KT 26/17 A2998 RMK A01 T02620165  RH  055%=      5-min Rain = 0
KES1 040748Z 17006KT 26/17 A2998 RMK A01 T02620165  RH  055%=      5-min Rain = 0
KES1 040749Z 17006KT 26/17 A2998 RMK A01 T02630166  RH  055%=      5-min Rain = 0
KES1 040750Z 17005KT 26/17 A2998 RMK A01 T02630166  RH  055%=      5-min Rain = 0
KES1 040751Z 16006KT 26/17 A2998 RMK A01 T02620166  RH  055%=      5-min Rain = 0
KES1 040752Z 17005KT 26/17 A2998 RMK A01 T02620166  RH  055%=      5-min Rain = 0
KES1 040753Z 17006KT 26/17 A2998 RMK A01 T02610166  RH  056%=      5-min Rain = 0
KES1 040754Z 17006KT 26/17 A2998 RMK A01 T02610166  RH  056%=      5-min Rain = 0
KES1 040755Z 17006KT 26/17 A2998 RMK A01 T02600165  RH  056%=      5-min Rain = 0
KES1 040756Z 17005KT 26/17 A2998 RMK A01 T02600165  RH  056%=      5-min Rain = 0
KES1 040757Z 17006KT 26/17 A2998 RMK A01 T02590165  RH  056%=      5-min Rain = 0
KES1 040758Z 17006KT 26/17 A2998 RMK A01 T02590165  RH  056%=      5-min Rain = 0
KES1 040759Z 17006KT 26/17 A2998 RMK A01 T02590165  RH  056%=      5-min Rain = 0
KES1 040800Z 17006KT 26/17 A2998 RMK A01 T02590165  RH  056%=      5-min Rain = 0
KES1 040801Z 17006KT 26/17 A2998 RMK A01 T02590165  RH  056%=      5-min Rain = 0
KES1 040802Z 17006KT 26/17 A2998 RMK A01 T02590165  RH  056%=      5-min Rain = 0
KES1 040803Z 17007KT 26/17 A2998 RMK A01 T02590165  RH  056%=      5-min Rain = 0
KES1 040804Z 18006KT 26/17 A2998 RMK A01 T02590165  RH  056%=      5-min Rain = 0
KES1 040805Z 17006KT 26/17 A2998 RMK A01 T02590165  RH  056%=      5-min Rain = 0
KES1 040806Z 18006KT 26/17 A2998 RMK A01 T02590165  RH  056%=      5-min Rain = 0
KES1 040807Z 18006KT 26/17 A2998 RMK A01 T02590165  RH  056%=      5-min Rain = 0
KES1 040808Z 17006KT 26/17 A2998 RMK A01 T02590165  RH  056%=      5-min Rain = 0
KES1 040809Z 18006KT 26/17 A2998 RMK A01 T02600166  RH  056%=      5-min Rain = 0
KES1 040810Z 18005KT 26/17 A2998 RMK A01 T02590165  RH  056%=      5-min Rain = 0
KES1 040811Z 18004KT 26/17 A2998 RMK A01 T02600166  RH  056%=      5-min Rain = 0
KES1 040812Z 18005KT 26/17 A2998 RMK A01 T02590165  RH  056%=      5-min Rain = 0
KES1 040813Z 18004KT 26/17 A2998 RMK A01 T02590166  RH  056%=      5-min Rain = 0
KES1 040814Z 18004KT 26/17 A2998 RMK A01 T02590166  RH  056%=      5-min Rain = 0
KES1 040815Z 18004KT 26/17 A2998 RMK A01 T02600166  RH  056%=      5-min Rain = 0
KES1 040816Z 17004KT 26/17 A2998 RMK A01 T02590165  RH  056%=      5-min Rain = 0
KES1 040817Z 17004KT 26/17 A2997 RMK A01 T02590166  RH  056%=      5-min Rain = 0
KES1 040818Z 17004KT 26/17 A2997 RMK A01 T02590166  RH  056%=      5-min Rain = 0
KES1 040819Z 17003KT 26/17 A2997 RMK A01 T02590166  RH  056%=      5-min Rain = 0
KES1 040820Z 18003KT 26/17 A2998 RMK A01 T02580166  RH  057%=      5-min Rain = 0
KES1 040821Z 18003KT 26/17 A2998 RMK A01 T02580166  RH  057%=      5-min Rain = 0
KES1 040822Z 19003KT 26/17 A2998 RMK A01 T02580166  RH  057%=      5-min Rain = 0
KES1 040823Z 20002KT 26/17 A2998 RMK A01 T02570166  RH  057%=      5-min Rain = 0
KES1 040824Z 19002KT 26/17 A2998 RMK A01 T02560165  RH  057%=      5-min Rain = 0
KES1 040825Z 18002KT 26/17 A2998 RMK A01 T02560166  RH  057%=      5-min Rain = 0
KES1 040826Z 18002KT 26/17 A2998 RMK A01 T02560165  RH  057%=      5-min Rain = 0
KES1 040827Z 17002KT 26/17 A2998 RMK A01 T02560165  RH  057%=      5-min Rain = 0
KES1 040828Z 16001KT 26/17 A2998 RMK A01 T02550165  RH  057%=      5-min Rain = 0
KES1 040829Z 15001KT 26/17 A2998 RMK A01 T02550165  RH  058%=      5-min Rain = 0
KES1 040830Z 15001KT 25/17 A2998 RMK A01 T02540165  RH  058%=      5-min Rain = 0
KES1 040831Z 16000KT 25/16 A2998 RMK A01 T02520164  RH  058%=      5-min Rain = 0
KES1 040832Z 00000KT 25/16 A2998 RMK A01 T02500164  RH  059%=      5-min Rain = 0
KES1 040833Z 00000KT 25/16 A2998 RMK A01 T02490164  RH  059%=      5-min Rain = 0
KES1 040834Z 32000KT 25/17 A2998 RMK A01 T02480165  RH  060%=      5-min Rain = 0
KES1 040835Z 31001KT 25/16 A2998 RMK A01 T02470164  RH  060%=      5-min Rain = 0
KES1 040836Z 33001KT 25/17 A2998 RMK A01 T02460165  RH  060%=      5-min Rain = 0
KES1 040837Z 34001KT 25/16 A2998 RMK A01 T02450164  RH  061%=      5-min Rain = 0
KES1 040838Z 32002KT 25/16 A2998 RMK A01 T02450164  RH  061%=      5-min Rain = 0
KES1 040839Z 33003KT 24/16 A2998 RMK A01 T02440164  RH  061%=      5-min Rain = 0
KES1 040840Z 35004KT 24/16 A2998 RMK A01 T02440164  RH  061%=      5-min Rain = 0
KES1 040841Z 35005KT 24/16 A2998 RMK A01 T02430164  RH  061%=      5-min Rain = 0
KES1 040842Z 36007KT 24/16 A2998 RMK A01 T02420164  RH  062%=      5-min Rain = 0
KES1 040843Z 35008KT 24/16 A2999 RMK A01 T02410164  RH  062%=      5-min Rain = 0
KES1 040844Z 35009KT 24/16 A2999 RMK A01 T02400164  RH  062%=      5-min Rain = 0
KES1 040845Z 35010KT 24/16 A2999 RMK A01 T02400163  RH  062%=      5-min Rain = 0
KES1 040846Z 36010KT 24/16 A2999 RMK A01 T02420162  RH  061%=      5-min Rain = 0
KES1 040847Z 36008KT 25/16 A2999 RMK A01 T02450162  RH  060%=      5-min Rain = 0
KES1 040848Z 00008KT 25/16 A2999 RMK A01 T02480163  RH  059%=      5-min Rain = 0
KES1 040849Z 00009KT 25/16 A2999 RMK A01 T02500163  RH  058%=      5-min Rain = 0
KES1 040850Z 00009KT 25/16 A2999 RMK A01 T02520164  RH  058%=      5-min Rain = 0
KES1 040851Z 36008KT 25/17 A2999 RMK A01 T02540165  RH  058%=      5-min Rain = 0
KES1 040852Z 36006KT 26/17 A2999 RMK A01 T02560165  RH  057%=      5-min Rain = 0
KES1 040853Z 36006KT 26/17 A2999 RMK A01 T02560165  RH  057%=      5-min Rain = 0
KES1 040854Z 00004KT 26/17 A2999 RMK A01 T02560165  RH  057%=      5-min Rain = 0
KES1 040855Z 01004KT 26/17 A2999 RMK A01 T02570165  RH  057%=      5-min Rain = 0
KES1 040856Z 01003KT 26/17 A2999 RMK A01 T02570166  RH  057%=      5-min Rain = 0
KES1 040857Z 01004KT 26/17 A2999 RMK A01 T02580167  RH  057%=      5-min Rain = 0
KES1 040858Z 01004KT 26/17 A2999 RMK A01 T02580167  RH  057%=      5-min Rain = 0
KES1 040859Z 02005KT 26/17 A30 RMK A01 T02590167  RH  057%=      5-min Rain = 0
KES1 040900Z 03004KT 26/17 A30 RMK A01 T02600167  RH  056%=      5-min Rain = 0
KES1 040901Z 02004KT 26/17 A30 RMK A01 T02600167  RH  056%=      5-min Rain = 0
KES1 040902Z 00005KT 26/17 A30 RMK A01 T02610167  RH  056%=      5-min Rain = 0
KES1 040903Z 00007KT 26/17 A30 RMK A01 T02600167  RH  057%=      5-min Rain = 0
KES1 040904Z 00007KT 26/17 A30 RMK A01 T02600168  RH  057%=      5-min Rain = 0
KES1 040905Z 36006KT 26/17 A30 RMK A01 T02600168  RH  057%=      5-min Rain = 0
KES1 040906Z 35007KT 26/17 A30 RMK A01 T02600168  RH  057%=      5-min Rain = 0
KES1 040907Z 35006KT 26/17 A3001 RMK A01 T02590168  RH  057%=      5-min Rain = 0
KES1 040908Z 00006KT 26/17 A3001 RMK A01 T02580168  RH  058%=      5-min Rain = 0
KES1 040909Z 36007KT 26/17 A3001 RMK A01 T02580168  RH  058%=      5-min Rain = 0
KES1 040910Z 00007KT 26/17 A3001 RMK A01 T02580168  RH  058%=      5-min Rain = 0
KES1 040911Z 01006KT 26/17 A3001 RMK A01 T02590169  RH  057%=      5-min Rain = 0
KES1 040912Z 01005KT 26/17 A3001 RMK A01 T02600169  RH  057%=      5-min Rain = 0
KES1 040913Z 00005KT 26/17 A3001 RMK A01 T02600169  RH  057%=      5-min Rain = 0
KES1 040914Z 01006KT 26/17 A3001 RMK A01 T02600169  RH  057%=      5-min Rain = 0
KES1 040915Z 02007KT 26/17 A3001 RMK A01 T02600170  RH  058%=      5-min Rain = 0
KES1 040916Z 02005KT 26/17 A3001 RMK A01 T02600170  RH  058%=      5-min Rain = 0
KES1 040917Z 02004KT 26/17 A3001 RMK A01 T02590170  RH  058%=      5-min Rain = 0
KES1 040918Z 01004KT 26/17 A3001 RMK A01 T02590170  RH  058%=      5-min Rain = 0
KES1 040919Z 01004KT 26/17 A3001 RMK A01 T02590170  RH  058%=      5-min Rain = 0
KES1 040920Z 01005KT 26/17 A3001 RMK A01 T02580170  RH  058%=      5-min Rain = 0
KES1 040921Z 00006KT 26/17 A3001 RMK A01 T02580170  RH  059%=      5-min Rain = 0
KES1 040922Z 01006KT 26/17 A3001 RMK A01 T02580171  RH  059%=      5-min Rain = 0
KES1 040923Z 01007KT 26/17 A3001 RMK A01 T02580171  RH  058%=      5-min Rain = 0
KES1 040924Z 01006KT 26/17 A3001 RMK A01 T02590171  RH  058%=      5-min Rain = 0
KES1 040925Z 00006KT 26/17 A3001 RMK A01 T02600171  RH  058%=      5-min Rain = 0
KES1 040926Z 00005KT 26/17 A3001 RMK A01 T02610171  RH  058%=      5-min Rain = 0
KES1 040927Z 01004KT 26/17 A3001 RMK A01 T02610172  RH  058%=      5-min Rain = 0
KES1 040928Z 02003KT 26/17 A3001 RMK A01 T02610171  RH  058%=      5-min Rain = 0
KES1 040929Z 03003KT 26/17 A30 RMK A01 T02610172  RH  058%=      5-min Rain = 0
KES1 040930Z 04003KT 26/17 A30 RMK A01 T02610172  RH  058%=      5-min Rain = 0
KES1 040931Z 05003KT 26/17 A30 RMK A01 T02600172  RH  058%=      5-min Rain = 0
KES1 040932Z 06003KT 26/17 A30 RMK A01 T02590172  RH  059%=      5-min Rain = 0
KES1 040933Z 06003KT 26/17 A30 RMK A01 T02580172  RH  059%=      5-min Rain = 0
KES1 040934Z 06004KT 26/17 A30 RMK A01 T02570172  RH  059%=      5-min Rain = 0
KES1 040935Z 05004KT 26/17 A30 RMK A01 T02560172  RH  060%=      5-min Rain = 0
KES1 040936Z 04005KT 26/17 A30 RMK A01 T02560172  RH  060%=      5-min Rain = 0
KES1 040937Z 04004KT 26/17 A30 RMK A01 T02550173  RH  060%=      5-min Rain = 0
KES1 040938Z 04004KT 26/17 A30 RMK A01 T02550173  RH  060%=      5-min Rain = 0
KES1 040939Z 05003KT 26/17 A30 RMK A01 T02550173  RH  061%=      5-min Rain = 0
KES1 040940Z 06002KT 25/17 A30 RMK A01 T02540172  RH  061%=      5-min Rain = 0
KES1 040941Z 10001KT 25/17 A30 RMK A01 T02540173  RH  061%=      5-min Rain = 0
KES1 040942Z 12001KT 25/17 A30 RMK A01 T02540173  RH  061%=      5-min Rain = 0
KES1 040943Z 15002KT 25/17 A30 RMK A01 T02530172  RH  061%=      5-min Rain = 0
KES1 040944Z 16001KT 25/17 A30 RMK A01 T02540173  RH  061%=      5-min Rain = 0
KES1 040945Z 18001KT 25/17 A30 RMK A01 T02540173  RH  061%=      5-min Rain = 0
KES1 040946Z 21001KT 25/17 A2999 RMK A01 T02530173  RH  061%=      5-min Rain = 0
KES1 040947Z 22001KT 25/17 A2999 RMK A01 T02510172  RH  062%=      5-min Rain = 0
KES1 040948Z 23000KT 25/17 A2999 RMK A01 T02510172  RH  062%=      5-min Rain = 0
KES1 040949Z 23000KT 25/17 A2999 RMK A01 T02510172  RH  062%=      5-min Rain = 0
KES1 040950Z 00000KT 25/17 A2999 RMK A01 T02510172  RH  061%=      5-min Rain = 0
KES1 040951Z 00000KT 25/17 A2999 RMK A01 T02530173  RH  061%=      5-min Rain = 0
KES1 040952Z 12000KT 25/17 A2999 RMK A01 T02540173  RH  061%=      5-min Rain = 0
KES1 040953Z 14002KT 25/17 A2999 RMK A01 T02530173  RH  061%=      5-min Rain = 0
KES1 040954Z 15003KT 25/17 A2999 RMK A01 T02510172  RH  062%=      5-min Rain = 0
KES1 040955Z 14004KT 25/17 A2999 RMK A01 T02490172  RH  062%=      5-min Rain = 0
KES1 040956Z 12003KT 25/17 A2999 RMK A01 T02480172  RH  063%=      5-min Rain = 0
KES1 040957Z 10003KT 25/17 A2999 RMK A01 T02470172  RH  063%=      5-min Rain = 0
KES1 040958Z 08002KT 25/17 A2999 RMK A01 T02470172  RH  063%=      5-min Rain = 0
KES1 040959Z 06002KT 25/17 A2999 RMK A01 T02470173  RH  063%=      5-min Rain = 0
KES1 041000Z 04003KT 25/17 A2999 RMK A01 T02470173  RH  063%=      5-min Rain = 0
KES1 041001Z 03003KT 25/17 A30 RMK A01 T02480173  RH  063%=      5-min Rain = 0
KES1 041002Z 02004KT 25/17 A30 RMK A01 T02480173  RH  063%=      5-min Rain = 0
KES1 041003Z 02004KT 25/17 A30 RMK A01 T02490173  RH  063%=      5-min Rain = 0
KES1 041004Z 02004KT 25/17 A30 RMK A01 T02510173  RH  062%=      5-min Rain = 0
KES1 041005Z 01003KT 25/17 A30 RMK A01 T02520173  RH  062%=      5-min Rain = 0
KES1 041006Z 36004KT 25/17 A30 RMK A01 T02530174  RH  061%=      5-min Rain = 0
KES1 041007Z 34004KT 25/17 A30 RMK A01 T02520173  RH  062%=      5-min Rain = 0
KES1 041008Z 34004KT 25/17 A30 RMK A01 T02510173  RH  062%=      5-min Rain = 0
KES1 041009Z 34003KT 25/17 A30 RMK A01 T02500173  RH  062%=      5-min Rain = 0
KES1 041010Z 33003KT 25/17 A30 RMK A01 T02500173  RH  062%=      5-min Rain = 0
KES1 041011Z 33003KT 25/17 A30 RMK A01 T02490174  RH  063%=      5-min Rain = 0
KES1 041012Z 33003KT 25/17 A30 RMK A01 T02490173  RH  063%=      5-min Rain = 0
KES1 041013Z 34003KT 25/17 A30 RMK A01 T02480173  RH  063%=      5-min Rain = 0
KES1 041014Z 34003KT 25/17 A30 RMK A01 T02480173  RH  063%=      5-min Rain = 0
KES1 041015Z 35003KT 25/17 A30 RMK A01 T02480173  RH  063%=      5-min Rain = 0
KES1 041016Z 35003KT 25/17 A30 RMK A01 T02470173  RH  063%=      5-min Rain = 0
KES1 041017Z 34003KT 25/17 A30 RMK A01 T02470173  RH  063%=      5-min Rain = 0
KES1 041018Z 34003KT 25/17 A30 RMK A01 T02470172  RH  063%=      5-min Rain = 0
KES1 041019Z 33003KT 25/17 A30 RMK A01 T02470173  RH  063%=      5-min Rain = 0
KES1 041020Z 34003KT 25/17 A30 RMK A01 T02470173  RH  064%=      5-min Rain = 0
KES1 041021Z 34003KT 25/17 A30 RMK A01 T02460173  RH  064%=      5-min Rain = 0
KES1 041022Z 33003KT 25/17 A30 RMK A01 T02460173  RH  064%=      5-min Rain = 0
KES1 041023Z 32003KT 25/17 A30 RMK A01 T02460173  RH  064%=      5-min Rain = 0
KES1 041024Z 32002KT 25/17 A30 RMK A01 T02450173  RH  064%=      5-min Rain = 0
KES1 041025Z 32002KT 25/17 A30 RMK A01 T02450173  RH  064%=      5-min Rain = 0
KES1 041026Z 33002KT 24/17 A30 RMK A01 T02440173  RH  064%=      5-min Rain = 0
KES1 041027Z 33001KT 24/17 A30 RMK A01 T02440172  RH  064%=      5-min Rain = 0
KES1 041028Z 32001KT 25/17 A30 RMK A01 T02450172  RH  064%=      5-min Rain = 0
KES1 041029Z 30000KT 24/17 A30 RMK A01 T02440172  RH  064%=      5-min Rain = 0
KES1 041030Z 29001KT 25/17 A30 RMK A01 T02450172  RH  064%=      5-min Rain = 0
KES1 041031Z 31002KT 25/17 A30 RMK A01 T02450172  RH  064%=      5-min Rain = 0
KES1 041032Z 31002KT 25/17 A30 RMK A01 T02460172  RH  064%=      5-min Rain = 0
KES1 041033Z 31002KT 25/17 A2999 RMK A01 T02460172  RH  063%=      5-min Rain = 0
KES1 041034Z 32002KT 25/17 A2999 RMK A01 T02460172  RH  063%=      5-min Rain = 0
KES1 041035Z 32002KT 25/17 A2999 RMK A01 T02470172  RH  063%=      5-min Rain = 0
KES1 041036Z 33001KT 25/17 A2999 RMK A01 T02470172  RH  063%=      5-min Rain = 0
KES1 041037Z 33001KT 25/17 A2999 RMK A01 T02480172  RH  063%=      5-min Rain = 0
KES1 041038Z 34001KT 25/17 A2999 RMK A01 T02480173  RH  063%=      5-min Rain = 0
KES1 041039Z 34001KT 25/17 A2999 RMK A01 T02470172  RH  063%=      5-min Rain = 0
KES1 041040Z 30001KT 25/17 A2999 RMK A01 T02480173  RH  063%=      5-min Rain = 0
KES1 041041Z 30002KT 25/17 A2999 RMK A01 T02480173  RH  063%=      5-min Rain = 0
KES1 041042Z 30002KT 25/17 A2999 RMK A01 T02490173  RH  063%=      5-min Rain = 0
KES1 041043Z 30002KT 25/17 A2999 RMK A01 T02490173  RH  062%=      5-min Rain = 0
KES1 041044Z 32002KT 25/17 A2999 RMK A01 T02500173  RH  062%=      5-min Rain = 0
KES1 041045Z 33002KT 25/17 A2999 RMK A01 T02500173  RH  062%=      5-min Rain = 0
KES1 041046Z 32002KT 25/17 A2999 RMK A01 T02500173  RH  062%=      5-min Rain = 0
KES1 041047Z 32002KT 25/17 A2999 RMK A01 T02500173  RH  062%=      5-min Rain = 0
KES1 041048Z 31002KT 25/17 A2999 RMK A01 T02500173  RH  062%=      5-min Rain = 0
KES1 041049Z 31002KT 25/17 A2999 RMK A01 T02500173  RH  062%=      5-min Rain = 0
KES1 041050Z 30002KT 25/17 A2999 RMK A01 T02500173  RH  062%=      5-min Rain = 0
KES1 041051Z 30001KT 25/17 A2999 RMK A01 T02500173  RH  062%=      5-min Rain = 0
KES1 041052Z 30001KT 25/17 A2999 RMK A01 T02510173  RH  062%=      5-min Rain = 0
KES1 041053Z 30001KT 25/17 A2999 RMK A01 T02510173  RH  062%=      5-min Rain = 0
KES1 041054Z 30002KT 25/17 A2999 RMK A01 T02510173  RH  062%=      5-min Rain = 0
KES1 041055Z 32002KT 25/17 A2999 RMK A01 T02510174  RH  062%=      5-min Rain = 0
KES1 041056Z 33003KT 25/17 A2999 RMK A01 T02510174  RH  062%=      5-min Rain = 0
KES1 041057Z 33003KT 25/18 A2999 RMK A01 T02510175  RH  063%=      5-min Rain = 0
KES1 041058Z 34002KT 25/17 A2999 RMK A01 T02500174  RH  062%=      5-min Rain = 0
KES1 041059Z 34002KT 25/17 A2999 RMK A01 T02500174  RH  062%=      5-min Rain = 0
KES1 041100Z 33002KT 25/17 A2999 RMK A01 T02510174  RH  062%=      5-min Rain = 0
KES1 041101Z 33003KT 25/17 A2999 RMK A01 T02500174  RH  062%=      5-min Rain = 0
KES1 041102Z 33003KT 25/17 A2999 RMK A01 T02500174  RH  063%=      5-min Rain = 0
KES1 041103Z 33003KT 25/17 A2999 RMK A01 T02500174  RH  063%=      5-min Rain = 0
KES1 041104Z 33003KT 25/17 A2999 RMK A01 T02500174  RH  063%=      5-min Rain = 0
KES1 041105Z 33002KT 25/17 A2999 RMK A01 T02500174  RH  063%=      5-min Rain = 0
KES1 041106Z 32003KT 25/17 A2999 RMK A01 T02500173  RH  062%=      5-min Rain = 0
KES1 041107Z 32002KT 25/17 A2999 RMK A01 T02500174  RH  063%=      5-min Rain = 0
KES1 041108Z 32002KT 25/17 A2999 RMK A01 T02500174  RH  063%=      5-min Rain = 0
KES1 041109Z 31002KT 25/17 A2999 RMK A01 T02500174  RH  063%=      5-min Rain = 0
KES1 041110Z 30002KT 25/17 A2999 RMK A01 T02490174  RH  063%=      5-min Rain = 0
KES1 041111Z 30002KT 25/17 A2999 RMK A01 T02490174  RH  063%=      5-min Rain = 0
KES1 041112Z 29003KT 25/17 A2999 RMK A01 T02480174  RH  063%=      5-min Rain = 0
KES1 041113Z 29002KT 25/17 A2999 RMK A01 T02470174  RH  064%=      5-min Rain = 0
KES1 041114Z 29002KT 25/17 A2999 RMK A01 T02470174  RH  064%=      5-min Rain = 0
KES1 041115Z 29003KT 25/17 A2999 RMK A01 T02460174  RH  064%=      5-min Rain = 0
KES1 041116Z 29003KT 25/17 A2999 RMK A01 T02460174  RH  064%=      5-min Rain = 0
KES1 041117Z 29003KT 25/17 A2999 RMK A01 T02460174  RH  064%=      5-min Rain = 0
KES1 041118Z 29003KT 25/17 A2999 RMK A01 T02460174  RH  064%=      5-min Rain = 0
KES1 041119Z 30003KT 25/17 A2999 RMK A01 T02460174  RH  064%=      5-min Rain = 0
KES1 041120Z 30003KT 25/17 A2999 RMK A01 T02470174  RH  064%=      5-min Rain = 0
KES1 041121Z 29003KT 25/17 A2999 RMK A01 T02470174  RH  064%=      5-min Rain = 0
KES1 041122Z 29003KT 25/17 A2999 RMK A01 T02470174  RH  064%=      5-min Rain = 0
KES1 041123Z 30003KT 25/17 A2999 RMK A01 T02470174  RH  064%=      5-min Rain = 0
KES1 041124Z 31003KT 25/17 A2999 RMK A01 T02470174  RH  064%=      5-min Rain = 0
KES1 041125Z 31003KT 25/17 A2999 RMK A01 T02460174  RH  064%=      5-min Rain = 0
KES1 041126Z 30003KT 25/17 A2999 RMK A01 T02460174  RH  064%=      5-min Rain = 0
KES1 041127Z 29002KT 25/17 A2999 RMK A01 T02470174  RH  064%=      5-min Rain = 0
KES1 041128Z 29002KT 25/17 A2999 RMK A01 T02470174  RH  064%=      5-min Rain = 0
KES1 041129Z 29003KT 25/17 A2999 RMK A01 T02470174  RH  064%=      5-min Rain = 0
KES1 041130Z 30004KT 25/18 A2999 RMK A01 T02460175  RH  064%=      5-min Rain = 0
KES1 041131Z 31003KT 25/18 A2999 RMK A01 T02460175  RH  064%=      5-min Rain = 0
KES1 041132Z 31003KT 25/18 A2999 RMK A01 T02460175  RH  065%=      5-min Rain = 0
KES1 041133Z 30002KT 25/18 A2999 RMK A01 T02460176  RH  065%=      5-min Rain = 0
KES1 041134Z 29002KT 25/18 A2999 RMK A01 T02460175  RH  065%=      5-min Rain = 0
KES1 041135Z 31002KT 25/18 A2999 RMK A01 T02460175  RH  065%=      5-min Rain = 0
KES1 041136Z 31002KT 25/18 A2999 RMK A01 T02460175  RH  065%=      5-min Rain = 0
KES1 041137Z 31002KT 25/18 A2999 RMK A01 T02460176  RH  065%=      5-min Rain = 0
KES1 041138Z 31001KT 25/18 A2999 RMK A01 T02460178  RH  066%=      5-min Rain = 0
KES1 041139Z 31002KT 25/18 A2999 RMK A01 T02450175  RH  065%=      5-min Rain = 0
KES1 041140Z 31002KT 25/18 A2999 RMK A01 T02450175  RH  065%=      5-min Rain = 0
KES1 041141Z 30003KT 25/18 A2999 RMK A01 T02450175  RH  065%=      5-min Rain = 0
KES1 041142Z 30003KT 25/18 A2999 RMK A01 T02450175  RH  065%=      5-min Rain = 0
KES1 041143Z 30003KT 25/18 A2999 RMK A01 T02460175  RH  065%=      5-min Rain = 0
KES1 041144Z 30003KT 25/18 A2999 RMK A01 T02460176  RH  065%=      5-min Rain = 0
KES1 041145Z 29002KT 25/18 A2999 RMK A01 T02460175  RH  065%=      5-min Rain = 0
KES1 041146Z 30002KT 25/18 A2999 RMK A01 T02460175  RH  065%=      5-min Rain = 0
KES1 041147Z 31002KT 25/18 A2999 RMK A01 T02460175  RH  065%=      5-min Rain = 0
KES1 041148Z 31002KT 25/18 A2998 RMK A01 T02460175  RH  065%=      5-min Rain = 0
KES1 041149Z 32002KT 25/18 A2998 RMK A01 T02460176  RH  065%=      5-min Rain = 0
KES1 041150Z 32001KT 25/18 A2998 RMK A01 T02460176  RH  065%=      5-min Rain = 0
KES1 041151Z 31001KT 25/18 A2998 RMK A01 T02450176  RH  065%=      5-min Rain = 0
KES1 041152Z 31001KT 25/18 A2998 RMK A01 T02460176  RH  065%=      5-min Rain = 0
KES1 041153Z 30001KT 25/18 A2998 RMK A01 T02450176  RH  065%=      5-min Rain = 0
KES1 041154Z 31001KT 25/18 A2998 RMK A01 T02450176  RH  065%=      5-min Rain = 0
KES1 041155Z 31001KT 25/18 A2998 RMK A01 T02460176  RH  065%=      5-min Rain = 0
KES1 041156Z 32001KT 25/18 A2998 RMK A01 T02460176  RH  065%=      5-min Rain = 0
KES1 041157Z 34001KT 25/18 A2998 RMK A01 T02470176  RH  065%=      5-min Rain = 0
KES1 041158Z 34001KT 25/18 A2998 RMK A01 T02470177  RH  065%=      5-min Rain = 0
KES1 041159Z 35000KT 25/18 A2998 RMK A01 T02470178  RH  065%=      5-min Rain = 0
KES1 041200Z 00001KT 25/18 A2998 RMK A01 T02460178  RH  066%=      5-min Rain = 0
KES1 041201Z 00000KT 25/18 A2998 RMK A01 T02450177  RH  066%=      5-min Rain = 0
KES1 041202Z 00000KT 25/18 A2998 RMK A01 T02450177  RH  066%=      5-min Rain = 0
KES1 041203Z 32000KT 25/18 A2998 RMK A01 T02450178  RH  066%=      5-min Rain = 0
KES1 041204Z 00000KT 25/18 A2998 RMK A01 T02450177  RH  066%=      5-min Rain = 0
KES1 041205Z 26001KT 25/18 A2998 RMK A01 T02450178  RH  066%=      5-min Rain = 0
KES1 041206Z 26001KT 25/18 A2998 RMK A01 T02450179  RH  066%=      5-min Rain = 0
KES1 041207Z 26001KT 25/18 A2998 RMK A01 T02450179  RH  066%=      5-min Rain = 0
KES1 041208Z 27001KT 25/18 A2998 RMK A01 T02450178  RH  066%=      5-min Rain = 0
KES1 041209Z 28002KT 25/18 A2998 RMK A01 T02460177  RH  066%=      5-min Rain = 0
KES1 041210Z 29002KT 25/18 A2998 RMK A01 T02470179  RH  066%=      5-min Rain = 0
KES1 041211Z 29002KT 25/18 A2998 RMK A01 T02470178  RH  066%=      5-min Rain = 0
KES1 041212Z 28002KT 25/18 A2998 RMK A01 T02470178  RH  065%=      5-min Rain = 0
KES1 041213Z 28002KT 25/18 A2998 RMK A01 T02480179  RH  066%=      5-min Rain = 0
KES1 041214Z 27002KT 25/18 A2998 RMK A01 T02480179  RH  066%=      5-min Rain = 0
KES1 041215Z 26002KT 25/18 A2998 RMK A01 T02480179  RH  066%=      5-min Rain = 0
KES1 041216Z 26002KT 25/18 A2998 RMK A01 T02480180  RH  066%=      5-min Rain = 0
KES1 041217Z 26002KT 25/18 A2998 RMK A01 T02480180  RH  066%=      5-min Rain = 0
KES1 041218Z 27002KT 25/18 A2998 RMK A01 T02470179  RH  066%=      5-min Rain = 0
KES1 041219Z 27002KT 25/18 A2998 RMK A01 T02480180  RH  066%=      5-min Rain = 0
KES1 041220Z 27002KT 25/18 A2998 RMK A01 T02480179  RH  066%=      5-min Rain = 0
KES1 041221Z 27002KT 25/18 A2998 RMK A01 T02480179  RH  065%=      5-min Rain = 0
KES1 041222Z 27002KT 25/18 A2998 RMK A01 T02480179  RH  065%=      5-min Rain = 0
KES1 041223Z 26002KT 25/18 A2998 RMK A01 T02490179  RH  065%=      5-min Rain = 0
KES1 041224Z 26002KT 25/18 A2998 RMK A01 T02480179  RH  065%=      5-min Rain = 0
KES1 041225Z 26002KT 25/18 A2998 RMK A01 T02490179  RH  065%=      5-min Rain = 0
KES1 041226Z 26002KT 25/18 A2998 RMK A01 T02490179  RH  065%=      5-min Rain = 0
KES1 041227Z 25003KT 25/18 A2998 RMK A01 T02490178  RH  065%=      5-min Rain = 0
KES1 041228Z 25003KT 25/18 A2998 RMK A01 T02500178  RH  064%=      5-min Rain = 0
KES1 041229Z 25003KT 25/18 A2998 RMK A01 T02500179  RH  065%=      5-min Rain = 0
KES1 041230Z 25002KT 25/18 A2998 RMK A01 T02510181  RH  065%=      5-min Rain = 0
KES1 041231Z 25002KT 25/18 A2998 RMK A01 T02500180  RH  065%=      5-min Rain = 0
KES1 041232Z 24002KT 25/18 A2998 RMK A01 T02500180  RH  065%=      5-min Rain = 0
KES1 041233Z 23002KT 25/18 A2998 RMK A01 T02500180  RH  065%=      5-min Rain = 0
KES1 041234Z 23002KT 25/18 A2998 RMK A01 T02500182  RH  066%=      5-min Rain = 0
KES1 041235Z 25002KT 25/18 A2998 RMK A01 T02500180  RH  065%=      5-min Rain = 0
KES1 041236Z 25002KT 25/18 A2998 RMK A01 T02510181  RH  065%=      5-min Rain = 0
KES1 041237Z 27001KT 25/18 A2998 RMK A01 T02510180  RH  065%=      5-min Rain = 0
KES1 041238Z 28001KT 25/18 A2998 RMK A01 T02510181  RH  065%=      5-min Rain = 0
KES1 041239Z 28001KT 25/18 A2998 RMK A01 T02510180  RH  065%=      5-min Rain = 0
KES1 041240Z 29001KT 25/18 A2998 RMK A01 T02520180  RH  065%=      5-min Rain = 0
KES1 041241Z 29002KT 25/18 A2998 RMK A01 T02520181  RH  065%=      5-min Rain = 0
KES1 041242Z 29001KT 25/18 A2998 RMK A01 T02530181  RH  064%=      5-min Rain = 0
KES1 041243Z 29002KT 25/18 A2999 RMK A01 T02530181  RH  064%=      5-min Rain = 0
KES1 041244Z 31002KT 25/18 A2999 RMK A01 T02540181  RH  064%=      5-min Rain = 0
KES1 041245Z 31002KT 25/18 A2999 RMK A01 T02540182  RH  064%=      5-min Rain = 0
KES1 041246Z 32002KT 25/18 A2999 RMK A01 T02540183  RH  065%=      5-min Rain = 0
KES1 041247Z 33002KT 25/18 A2999 RMK A01 T02540182  RH  064%=      5-min Rain = 0
KES1 041248Z 33002KT 26/18 A2999 RMK A01 T02550181  RH  064%=      5-min Rain = 0
KES1 041249Z 33002KT 26/18 A2999 RMK A01 T02550181  RH  064%=      5-min Rain = 0
KES1 041250Z 33002KT 26/18 A2999 RMK A01 T02550181  RH  064%=      5-min Rain = 0
KES1 041251Z 33003KT 26/18 A2999 RMK A01 T02560181  RH  063%=      5-min Rain = 0
KES1 041252Z 34003KT 26/18 A2999 RMK A01 T02560180  RH  063%=      5-min Rain = 0
KES1 041253Z 34004KT 26/18 A2999 RMK A01 T02560180  RH  063%=      5-min Rain = 0
KES1 041254Z 35004KT 26/18 A2999 RMK A01 T02560180  RH  063%=      5-min Rain = 0
KES1 041255Z 34004KT 26/18 A2999 RMK A01 T02570180  RH  063%=      5-min Rain = 0
KES1 041256Z 34004KT 26/18 A2999 RMK A01 T02570180  RH  062%=      5-min Rain = 0
KES1 041257Z 34003KT 26/18 A2999 RMK A01 T02570180  RH  063%=      5-min Rain = 0
KES1 041258Z 35003KT 26/18 A2999 RMK A01 T02570180  RH  062%=      5-min Rain = 0
KES1 041259Z 35004KT 26/18 A2999 RMK A01 T02570179  RH  062%=      5-min Rain = 0
KES1 041300Z 35004KT 26/18 A2999 RMK A01 T02580180  RH  062%=      5-min Rain = 0
KES1 041301Z 35003KT 26/18 A2999 RMK A01 T02580180  RH  062%=      5-min Rain = 0
KES1 041302Z 35004KT 26/18 A2999 RMK A01 T02590179  RH  061%=      5-min Rain = 0
KES1 041303Z 34004KT 26/18 A2999 RMK A01 T02600180  RH  061%=      5-min Rain = 0
KES1 041304Z 34003KT 26/18 A2999 RMK A01 T02610179  RH  061%=      5-min Rain = 0
KES1 041305Z 34004KT 26/18 A2999 RMK A01 T02620181  RH  061%=      5-min Rain = 0
KES1 041306Z 34004KT 26/18 A2999 RMK A01 T02620179  RH  060%=      5-min Rain = 0
KES1 041307Z 35004KT 26/18 A2999 RMK A01 T02630179  RH  060%=      5-min Rain = 0
KES1 041308Z 34004KT 26/18 A2999 RMK A01 T02630179  RH  060%=      5-min Rain = 0
KES1 041309Z 34004KT 26/18 A30 RMK A01 T02640179  RH  060%=      5-min Rain = 0
KES1 041310Z 35005KT 26/18 A30 RMK A01 T02640180  RH  060%=      5-min Rain = 0
KES1 041311Z 35005KT 27/18 A30 RMK A01 T02650181  RH  060%=      5-min Rain = 0
KES1 041312Z 35006KT 27/18 A30 RMK A01 T02660181  RH  060%=      5-min Rain = 0
KES1 041313Z 01006KT 27/18 A30 RMK A01 T02660179  RH  059%=      5-min Rain = 0
KES1 041314Z 01006KT 27/18 A30 RMK A01 T02670180  RH  059%=      5-min Rain = 0
KES1 041315Z 01007KT 27/18 A30 RMK A01 T02670181  RH  059%=      5-min Rain = 0
KES1 041316Z 02007KT 27/18 A30 RMK A01 T02670181  RH  059%=      5-min Rain = 0
KES1 041317Z 01006KT 27/18 A30 RMK A01 T02670182  RH  059%=      5-min Rain = 0
KES1 041318Z 01004KT 27/18 A30 RMK A01 T02680183  RH  059%=      5-min Rain = 0
KES1 041319Z 02007KT 27/18 A30 RMK A01 T02700183  RH  059%=      5-min Rain = 0
KES1 041320Z 03006KT 27/18 A30 RMK A01 T02720179  RH  057%=      5-min Rain = 0
KES1 041321Z 02006KT 27/18 A3001 RMK A01 T02740179  RH  056%=      5-min Rain = 0
KES1 041322Z 02007KT 28/18 A3001 RMK A01 T02760177  RH  055%=      5-min Rain = 0
KES1 041323Z 02005KT 28/18 A3001 RMK A01 T02770177  RH  055%=      5-min Rain = 0
KES1 041324Z 02007KT 28/18 A3001 RMK A01 T02780175  RH  053%=      5-min Rain = 0
KES1 041325Z 03007KT 28/17 A3001 RMK A01 T02780174  RH  053%=      5-min Rain = 0
KES1 041326Z 02008KT 28/18 A30 RMK A01 T02790175  RH  053%=      5-min Rain = 0
KES1 041327Z 02008KT 28/17 A30 RMK A01 T02800173  RH  052%=      5-min Rain = 0
KES1 041328Z 02008KT 28/17 A30 RMK A01 T02790171  RH  052%=      5-min Rain = 0
KES1 041329Z 02008KT 28/17 A30 RMK A01 T02790172  RH  052%=      5-min Rain = 0
KES1 041330Z 01007KT 28/17 A30 RMK A01 T02790172  RH  052%=      5-min Rain = 0
KES1 041331Z 02011KT 28/17 A30 RMK A01 T02800169  RH  051%=      5-min Rain = 0
KES1 041332Z 02008KT 28/17 A30 RMK A01 T02800165  RH  050%=      5-min Rain = 0
KES1 041333Z 01008KT 28/17 A30 RMK A01 T02800166  RH  050%=      5-min Rain = 0
KES1 041334Z 03008KT 28/17 A30 RMK A01 T02810167  RH  050%=      5-min Rain = 0
KES1 041335Z 03006KT 28/17 A30 RMK A01 T02810169  RH  050%=      5-min Rain = 0
KES1 041336Z 04007KT 28/17 A30 RMK A01 T02830169  RH  050%=      5-min Rain = 0
KES1 041337Z 04006KT 28/17 A3001 RMK A01 T02840170  RH  050%=      5-min Rain = 0
KES1 041338Z 04005KT 29/17 A3001 RMK A01 T02860169  RH  049%=      5-min Rain = 0
KES1 041339Z 02007KT 29/17 A30 RMK A01 T02870169  RH  049%=      5-min Rain = 0
KES1 041340Z 03007KT 29/17 A30 RMK A01 T02880165  RH  048%=      5-min Rain = 0
KES1 041341Z 02006KT 29/16 A30 RMK A01 T02880164  RH  047%=      5-min Rain = 0
KES1 041342Z 03006KT 29/16 A30 RMK A01 T02880164  RH  047%=      5-min Rain = 0
KES1 041343Z 03007KT 29/16 A30 RMK A01 T02890161  RH  046%=      5-min Rain = 0
KES1 041344Z 03006KT 29/16 A30 RMK A01 T02890161  RH  046%=      5-min Rain = 0
KES1 041345Z 01008KT 29/16 A30 RMK A01 T02890159  RH  045%=      5-min Rain = 0
KES1 041346Z 00007KT 29/16 A30 RMK A01 T02890157  RH  045%=      5-min Rain = 0
KES1 041347Z 00008KT 29/16 A30 RMK A01 T02880156  RH  044%=      5-min Rain = 0
KES1 041348Z 00007KT 29/16 A3001 RMK A01 T02890155  RH  044%=      5-min Rain = 0
KES1 041349Z 01008KT 29/15 A3001 RMK A01 T02890154  RH  044%=      5-min Rain = 0
KES1 041350Z 02008KT 29/15 A3001 RMK A01 T02890154  RH  044%=      5-min Rain = 0
KES1 041351Z 02007KT 29/15 A30 RMK A01 T02900154  RH  044%=      5-min Rain = 0
KES1 041352Z 02007KT 29/16 A30 RMK A01 T02910155  RH  044%=      5-min Rain = 0
KES1 041353Z 01005KT 29/16 A30 RMK A01 T02910156  RH  044%=      5-min Rain = 0
KES1 041354Z 01005KT 29/16 A30 RMK A01 T02930155  RH  043%=      5-min Rain = 0
KES1 041355Z 01006KT 29/16 A30 RMK A01 T02940156  RH  043%=      5-min Rain = 0
KES1 041356Z 00007KT 30/15 A30 RMK A01 T02950151  RH  042%=      5-min Rain = 0
KES1 041357Z 02008KT 29/15 A30 RMK A01 T02930152  RH  042%=      5-min Rain = 0
KES1 041358Z 01010KT 29/15 A30 RMK A01 T02920153  RH  043%=      5-min Rain = 0
KES1 041359Z 01010KT 29/15 A30 RMK A01 T02930152  RH  042%=      5-min Rain = 0
KES1 041400Z 00009KT 29/15 A30 RMK A01 T02920151  RH  042%=      5-min Rain = 0
KES1 041401Z 01007KT 29/15 A30 RMK A01 T02910152  RH  043%=      5-min Rain = 0
KES1 041402Z 02008KT 29/15 A30 RMK A01 T02910152  RH  043%=      5-min Rain = 0
KES1 041403Z 02007KT 29/15 A30 RMK A01 T02920153  RH  043%=      5-min Rain = 0
KES1 041404Z 02007KT 29/15 A30 RMK A01 T02930154  RH  043%=      5-min Rain = 0
KES1 041405Z 02006KT 30/16 A30 RMK A01 T02950155  RH  043%=      5-min Rain = 0
KES1 041406Z 02007KT 30/16 A30 RMK A01 T02970156  RH  042%=      5-min Rain = 0
KES1 041407Z 03006KT 30/15 A30 RMK A01 T02980154  RH  042%=      5-min Rain = 0
KES1 041408Z 02008KT 30/16 A30 RMK A01 T02990155  RH  042%=      5-min Rain = 0
KES1 041409Z 02009KT 30/15 A30 RMK A01 T02970152  RH  041%=      5-min Rain = 0
KES1 041410Z 01008KT 30/15 A30 RMK A01 T02950153  RH  042%=      5-min Rain = 0
KES1 041411Z 01006KT 29/15 A30 RMK A01 T02940153  RH  042%=      5-min Rain = 0
KES1 041412Z 02009KT 30/16 A30 RMK A01 T02950155  RH  043%=      5-min Rain = 0
KES1 041413Z 02007KT 30/15 A30 RMK A01 T02950153  RH  042%=      5-min Rain = 0
KES1 041414Z 01007KT 29/15 A30 RMK A01 T02940153  RH  042%=      5-min Rain = 0
KES1 041415Z 01007KT 29/16 A30 RMK A01 T02930155  RH  043%=      5-min Rain = 0
KES1 041416Z 01006KT 29/16 A30 RMK A01 T02940155  RH  043%=      5-min Rain = 0
KES1 041417Z 01006KT 29/16 A30 RMK A01 T02940157  RH  043%=      5-min Rain = 0
KES1 041418Z 02005KT 30/16 A30 RMK A01 T02950159  RH  044%=      5-min Rain = 0
KES1 041419Z 04006KT 30/16 A30 RMK A01 T02980162  RH  044%=      5-min Rain = 0
KES1 041420Z 03006KT 30/16 A30 RMK A01 T03010161  RH  043%=      5-min Rain = 0
KES1 041421Z 03006KT 30/16 A30 RMK A01 T03000159  RH  043%=      5-min Rain = 0
KES1 041422Z 02007KT 30/16 A30 RMK A01 T02980160  RH  043%=      5-min Rain = 0
KES1 041423Z 01007KT 30/16 A30 RMK A01 T02970162  RH  044%=      5-min Rain = 0
KES1 041424Z 02006KT 30/16 A30 RMK A01 T02970162  RH  044%=      5-min Rain = 0
KES1 041425Z 02006KT 30/16 A30 RMK A01 T02970163  RH  044%=      5-min Rain = 0
KES1 041426Z 02006KT 30/16 A30 RMK A01 T02970163  RH  044%=      5-min Rain = 0
KES1 041427Z 01006KT 30/16 A30 RMK A01 T02970164  RH  045%=      5-min Rain = 0
KES1 041428Z 02005KT 30/17 A30 RMK A01 T02970165  RH  045%=      5-min Rain = 0
KES1 041429Z 01005KT 30/17 A30 RMK A01 T02970166  RH  045%=      5-min Rain = 0
KES1 041430Z 03006KT 30/17 A30 RMK A01 T02980168  RH  046%=      5-min Rain = 0
KES1 041431Z 01005KT 30/17 A30 RMK A01 T02990168  RH  045%=      5-min Rain = 0
KES1 041432Z 36007KT 30/17 A30 RMK A01 T02980168  RH  046%=      5-min Rain = 0
KES1 041433Z 36007KT 30/17 A30 RMK A01 T02980169  RH  046%=      5-min Rain = 0
KES1 041434Z 35007KT 30/17 A30 RMK A01 T02970169  RH  046%=      5-min Rain = 0
KES1 041435Z 01007KT 30/17 A30 RMK A01 T02960170  RH  047%=      5-min Rain = 0
KES1 041436Z 01006KT 30/17 A30 RMK A01 T02970171  RH  047%=      5-min Rain = 0
KES1 041437Z 00006KT 30/17 A30 RMK A01 T02980170  RH  046%=      5-min Rain = 0
KES1 041438Z 36007KT 30/17 A30 RMK A01 T02980171  RH  046%=      5-min Rain = 0
KES1 041439Z 02006KT 30/17 A30 RMK A01 T02990172  RH  046%=      5-min Rain = 0
KES1 041440Z 01006KT 30/17 A30 RMK A01 T03000173  RH  047%=      5-min Rain = 0
KES1 041441Z 02007KT 30/17 A30 RMK A01 T03010172  RH  046%=      5-min Rain = 0
KES1 041442Z 00007KT 30/17 A30 RMK A01 T03020173  RH  046%=      5-min Rain = 0
KES1 041443Z 00007KT 30/17 A30 RMK A01 T03010171  RH  046%=      5-min Rain = 0
KES1 041444Z 01006KT 30/17 A30 RMK A01 T03000172  RH  046%=      5-min Rain = 0
KES1 041445Z 00008KT 30/17 A30 RMK A01 T03020171  RH  046%=      5-min Rain = 0
KES1 041446Z 36007KT 30/17 A30 RMK A01 T02990170  RH  046%=      5-min Rain = 0
KES1 041447Z 00009KT 30/17 A30 RMK A01 T02980171  RH  047%=      5-min Rain = 0
KES1 041448Z 00009KT 30/17 A30 RMK A01 T02970170  RH  046%=      5-min Rain = 0
KES1 041449Z 01009KT 30/17 A30 RMK A01 T02970170  RH  046%=      5-min Rain = 0
KES1 041450Z 02007KT 30/17 A30 RMK A01 T02960171  RH  047%=      5-min Rain = 0
KES1 041451Z 02008KT 30/17 A30 RMK A01 T02960172  RH  047%=      5-min Rain = 0
KES1 041452Z 02007KT 30/17 A30 RMK A01 T02970172  RH  047%=      5-min Rain = 0
KES1 041453Z 36008KT 30/17 A30 RMK A01 T02990173  RH  047%=      5-min Rain = 0
KES1 041454Z 01006KT 30/17 A30 RMK A01 T03000172  RH  046%=      5-min Rain = 0
KES1 041455Z 01005KT 30/17 A30 RMK A01 T02990173  RH  047%=      5-min Rain = 0
KES1 041456Z 35006KT 30/17 A30 RMK A01 T03000173  RH  047%=      5-min Rain = 0
KES1 041457Z 35007KT 30/17 A30 RMK A01 T03010173  RH  046%=      5-min Rain = 0
KES1 041458Z 35006KT 30/17 A30 RMK A01 T03010173  RH  046%=      5-min Rain = 0
KES1 041459Z 35009KT 30/17 A30 RMK A01 T03020174  RH  046%=      5-min Rain = 0
KES1 041500Z 02007KT 30/17 A2999 RMK A01 T03020174  RH  046%=      5-min Rain = 0
KES1 041501Z 02005KT 30/18 A30 RMK A01 T03040176  RH  046%=      5-min Rain = 0
KES1 041502Z 05007KT 31/18 A2999 RMK A01 T03070177  RH  046%=      5-min Rain = 0
KES1 041503Z 05007KT 31/18 A2999 RMK A01 T03080176  RH  045%=      5-min Rain = 0
KES1 041504Z 05007KT 31/18 A2999 RMK A01 T03090176  RH  045%=      5-min Rain = 0
KES1 041505Z 04004KT 31/18 A2999 RMK A01 T03090175  RH  045%=      5-min Rain = 0
KES1 041506Z 04006KT 31/18 A30 RMK A01 T03100176  RH  045%=      5-min Rain = 0
KES1 041507Z 05007KT 31/18 A30 RMK A01 T03100177  RH  045%=      5-min Rain = 0
KES1 041508Z 05007KT 31/18 A30 RMK A01 T03110177  RH  045%=      5-min Rain = 0
KES1 041509Z 00006KT 31/18 A30 RMK A01 T03110176  RH  045%=      5-min Rain = 0
KES1 041510Z 01006KT 31/18 A30 RMK A01 T03090175  RH  045%=      5-min Rain = 0
KES1 041511Z 01006KT 31/18 A30 RMK A01 T03080177  RH  046%=      5-min Rain = 0
KES1 041512Z 00008KT 31/18 A30 RMK A01 T03090176  RH  045%=      5-min Rain = 0
KES1 041513Z 01007KT 31/18 A30 RMK A01 T03080177  RH  045%=      5-min Rain = 0
KES1 041514Z 01007KT 31/18 A30 RMK A01 T03090177  RH  045%=      5-min Rain = 0
KES1 041515Z 00006KT 31/18 A30 RMK A01 T03090176  RH  045%=      5-min Rain = 0
KES1 041516Z 03006KT 31/18 A30 RMK A01 T03080176  RH  045%=      5-min Rain = 0
KES1 041517Z 05006KT 31/18 A30 RMK A01 T03080177  RH  046%=      5-min Rain = 0
KES1 041518Z 03005KT 31/18 A30 RMK A01 T03100178  RH  045%=      5-min Rain = 0
KES1 041519Z 04007KT 31/18 A30 RMK A01 T03130179  RH  045%=      5-min Rain = 0
KES1 041520Z 03005KT 31/18 A30 RMK A01 T03140177  RH  044%=      5-min Rain = 0
KES1 041521Z 06004KT 31/18 A30 RMK A01 T03130179  RH  045%=      5-min Rain = 0
KES1 041522Z 04006KT 32/18 A30 RMK A01 T03160180  RH  044%=      5-min Rain = 0
KES1 041523Z 04008KT 32/18 A30 RMK A01 T03180179  RH  043%=      5-min Rain = 0
KES1 041524Z 02007KT 32/18 A30 RMK A01 T03180178  RH  043%=      5-min Rain = 0
KES1 041525Z 03005KT 32/18 A30 RMK A01 T03150177  RH  044%=      5-min Rain = 0
KES1 041526Z 02005KT 32/18 A30 RMK A01 T03150177  RH  044%=      5-min Rain = 0
KES1 041527Z 03005KT 31/18 A30 RMK A01 T03130177  RH  044%=      5-min Rain = 0
KES1 041528Z 04009KT 31/18 A30 RMK A01 T03140179  RH  044%=      5-min Rain = 0
KES1 041529Z 04009KT 32/18 A30 RMK A01 T03170175  RH  043%=      5-min Rain = 0
KES1 041530Z 01007KT 32/18 A2999 RMK A01 T03170177  RH  043%=      5-min Rain = 0
KES1 041531Z 04008KT 32/18 A2999 RMK A01 T03170177  RH  043%=      5-min Rain = 0
KES1 041532Z 05007KT 32/18 A2999 RMK A01 T03170177  RH  043%=      5-min Rain = 0
KES1 041533Z 03008KT 32/18 A2999 RMK A01 T03180178  RH  043%=      5-min Rain = 0
KES1 041534Z 02009KT 32/18 A2999 RMK A01 T03200176  RH  042%=      5-min Rain = 0
KES1 041535Z 03009KT 32/18 A2999 RMK A01 T03200176  RH  042%=      5-min Rain = 0
KES1 041536Z 04007KT 32/18 A2999 RMK A01 T03190178  RH  043%=      5-min Rain = 0
KES1 041537Z 05008KT 32/18 A2999 RMK A01 T03210178  RH  043%=      5-min Rain = 0
KES1 041538Z 05006KT 32/18 A2999 RMK A01 T03220177  RH  042%=      5-min Rain = 0
KES1 041539Z 06006KT 32/18 A2999 RMK A01 T03210176  RH  042%=      5-min Rain = 0
KES1 041540Z 02005KT 32/18 A2999 RMK A01 T03220179  RH  043%=      5-min Rain = 0
KES1 041541Z 02006KT 32/18 A2999 RMK A01 T03230178  RH  042%=      5-min Rain = 0
KES1 041542Z 05006KT 32/18 A2999 RMK A01 T03230180  RH  043%=      5-min Rain = 0
KES1 041543Z 06007KT 33/18 A2999 RMK A01 T03260180  RH  042%=      5-min Rain = 0
KES1 041544Z 06006KT 33/18 A2999 RMK A01 T03260180  RH  042%=      5-min Rain = 0
KES1 041545Z 02006KT 33/18 A2999 RMK A01 T03260179  RH  041%=      5-min Rain = 0
KES1 041546Z 01006KT 33/18 A2999 RMK A01 T03260179  RH  041%=      5-min Rain = 0
KES1 041547Z 06006KT 32/18 A2999 RMK A01 T03240179  RH  042%=      5-min Rain = 0
KES1 041548Z 03007KT 33/18 A2999 RMK A01 T03260180  RH  042%=      5-min Rain = 0
KES1 041549Z 03008KT 33/18 A2999 RMK A01 T03280179  RH  041%=      5-min Rain = 0
KES1 041550Z 04007KT 33/18 A2999 RMK A01 T03290181  RH  041%=      5-min Rain = 0
KES1 041551Z 05004KT 33/19 A2999 RMK A01 T03320185  RH  042%=      5-min Rain = 0
KES1 041552Z 06004KT 34/18 A2999 RMK A01 T03370184  RH  041%=      5-min Rain = 0
KES1 041553Z 06009KT 34/18 A2999 RMK A01 T03360181  RH  040%=      5-min Rain = 0
KES1 041554Z 05006KT 33/18 A2999 RMK A01 T03340181  RH  040%=      5-min Rain = 0
KES1 041555Z 05005KT 33/18 A2999 RMK A01 T03320179  RH  040%=      5-min Rain = 0
KES1 041556Z 06009KT 33/18 A2999 RMK A01 T03320181  RH  041%=      5-min Rain = 0
KES1 041557Z 07009KT 33/18 A2999 RMK A01 T03330179  RH  040%=      5-min Rain = 0
KES1 041558Z 05010KT 33/18 A2999 RMK A01 T03330180  RH  040%=      5-min Rain = 0
KES1 041559Z 05007KT 33/18 A2999 RMK A01 T03330177  RH  040%=      5-min Rain = 0
KES1 041600Z 05005KT 33/18 A2999 RMK A01 T03310177  RH  040%=      5-min Rain = 0
KES1 041601Z 05010KT 33/18 A2999 RMK A01 T03290177  RH  041%=      5-min Rain = 0
KES1 041602Z 07011KT 33/18 A2999 RMK A01 T03290178  RH  041%=      5-min Rain = 0
KES1 041603Z 08009KT 33/18 A2999 RMK A01 T03310180  RH  041%=      5-min Rain = 0
KES1 041604Z 07007KT 33/18 A2999 RMK A01 T03310179  RH  041%=      5-min Rain = 0
KES1 041605Z 07008KT 33/18 A2999 RMK A01 T03330181  RH  040%=      5-min Rain = 0
KES1 041606Z 06010KT 33/18 A2999 RMK A01 T03340178  RH  040%=      5-min Rain = 0
KES1 041607Z 06007KT 33/18 A2999 RMK A01 T03320178  RH  040%=      5-min Rain = 0
KES1 041608Z 08009KT 33/18 A2999 RMK A01 T03330178  RH  040%=      5-min Rain = 0
KES1 041609Z 07008KT 33/18 A2999 RMK A01 T03340179  RH  040%=      5-min Rain = 0
KES1 041610Z 06006KT 34/18 A2999 RMK A01 T03350179  RH  040%=      5-min Rain = 0
KES1 041611Z 06006KT 34/18 A2999 RMK A01 T03350179  RH  040%=      5-min Rain = 0
KES1 041612Z 06011KT 34/18 A2999 RMK A01 T03350181  RH  040%=      5-min Rain = 0
KES1 041613Z 07009KT 34/18 A2999 RMK A01 T03370180  RH  039%=      5-min Rain = 0
KES1 041614Z 07006KT 34/18 A2999 RMK A01 T03350178  RH  039%=      5-min Rain = 0
KES1 041615Z 08006KT 33/18 A2999 RMK A01 T03330178  RH  040%=      5-min Rain = 0
KES1 041616Z 08007KT 33/18 A2999 RMK A01 T03340180  RH  040%=      5-min Rain = 0
KES1 041617Z 06009KT 34/18 A2999 RMK A01 T03370180  RH  040%=      5-min Rain = 0
KES1 041618Z 07008KT 34/18 A2999 RMK A01 T03380179  RH  039%=      5-min Rain = 0
KES1 041619Z 04006KT 34/18 A2999 RMK A01 T03360181  RH  040%=      5-min Rain = 0
KES1 041620Z 06010G15KT 34/18 A2999 RMK A01 T03390181  RH  039%=      5-min Rain = 0
KES1 041621Z 07011KT 34/18 A2999 RMK A01 T03410182  RH  039%=      5-min Rain = 0
KES1 041622Z 08009KT 34/18 A2999 RMK A01 T03410181  RH  039%=      5-min Rain = 0
KES1 041623Z 07009KT 34/18 A2999 RMK A01 T03380179  RH  039%=      5-min Rain = 0
KES1 041624Z 06007KT 34/18 A2999 RMK A01 T03380179  RH  039%=      5-min Rain = 0
KES1 041625Z 09008G13KT 34/18 A2999 RMK A01 T03410181  RH  039%=      5-min Rain = 0
KES1 041626Z 08012KT 34/18 A2999 RMK A01 T03440177  RH  037%=      5-min Rain = 0
KES1 041627Z 07009KT 34/18 A2999 RMK A01 T03400175  RH  037%=      5-min Rain = 0
KES1 041628Z 08006KT 34/18 A2999 RMK A01 T03390175  RH  038%=      5-min Rain = 0
KES1 041629Z 10004KT 34/18 A2999 RMK A01 T03390177  RH  038%=      5-min Rain = 0
KES1 041630Z 07004KT 34/18 A2999 RMK A01 T03410177  RH  038%=      5-min Rain = 0
KES1 041631Z 06007KT 34/18 A2999 RMK A01 T03440182  RH  038%=      5-min Rain = 0
KES1 041632Z 07008KT 35/18 A2999 RMK A01 T03490179  RH  037%=      5-min Rain = 0
KES1 041633Z 06005G10KT 35/18 A2999 RMK A01 T03450178  RH  037%=      5-min Rain = 0
KES1 041634Z 04007KT 35/18 A2999 RMK A01 T03460178  RH  037%=      5-min Rain = 0
KES1 041635Z 03007KT 35/18 A2999 RMK A01 T03510179  RH  036%=      5-min Rain = 0
KES1 041636Z 06007KT 35/18 A2999 RMK A01 T03530178  RH  036%=      5-min Rain = 0
KES1 041637Z 07007KT 36/18 A2999 RMK A01 T03560177  RH  035%=      5-min Rain = 0
KES1 041638Z 07008KT 35/17 A2999 RMK A01 T03540172  RH  034%=      5-min Rain = 0
KES1 041639Z 07008G13KT 35/17 A2999 RMK A01 T03510171  RH  035%=      5-min Rain = 0
KES1 041640Z 05010KT 35/17 A2999 RMK A01 T03520173  RH  035%=      5-min Rain = 0
KES1 041641Z 06008G13KT 35/17 A2999 RMK A01 T03510168  RH  034%=      5-min Rain = 0
KES1 041642Z 08004KT 35/17 A2999 RMK A01 T03470170  RH  035%=      5-min Rain = 0
KES1 041643Z 10005KT 35/17 A2999 RMK A01 T03470171  RH  035%=      5-min Rain = 0
KES1 041644Z 08006KT 35/17 A2999 RMK A01 T03470173  RH  036%=      5-min Rain = 0
KES1 041645Z 09004KT 35/17 A2999 RMK A01 T03480171  RH  035%=      5-min Rain = 0
KES1 041646Z 06005KT 35/17 A2999 RMK A01 T03450173  RH  036%=      5-min Rain = 0
KES1 041647Z 05008KT 35/18 A2999 RMK A01 T03450179  RH  037%=      5-min Rain = 0
KES1 041648Z 03005KT 35/18 A2999 RMK A01 T03490181  RH  037%=      5-min Rain = 0
KES1 041649Z 03008KT 35/18 A2999 RMK A01 T03490180  RH  037%=      5-min Rain = 0
KES1 041650Z 03006KT 35/18 A2999 RMK A01 T03490181  RH  037%=      5-min Rain = 0
KES1 041651Z 03007KT 35/18 A2999 RMK A01 T03480182  RH  038%=      5-min Rain = 0
KES1 041652Z 06009KT 35/18 A2999 RMK A01 T03510184  RH  037%=      5-min Rain = 0
KES1 041653Z 06008KT 35/18 A2999 RMK A01 T03530183  RH  037%=      5-min Rain = 0
KES1 041654Z 06009KT 35/18 A2999 RMK A01 T03540183  RH  037%=      5-min Rain = 0
KES1 041655Z 06009KT 35/18 A2999 RMK A01 T03530182  RH  036%=      5-min Rain = 0
KES1 041656Z 05010KT 35/18 A2999 RMK A01 T03520181  RH  037%=      5-min Rain = 0
KES1 041657Z 04007KT 35/18 A2999 RMK A01 T03510180  RH  037%=      5-min Rain = 0
KES1 041658Z 04008KT 35/18 A2999 RMK A01 T03520184  RH  037%=      5-min Rain = 0
KES1 041659Z 05009KT 36/18 A2999 RMK A01 T03580184  RH  036%=      5-min Rain = 0
KES1 041700Z 06010KT 36/18 A2999 RMK A01 T03600183  RH  035%=      5-min Rain = 0
KES1 041701Z 06009KT 36/18 A2999 RMK A01 T03560183  RH  036%=      5-min Rain = 0
KES1 041702Z 05008KT 36/18 A2999 RMK A01 T03560184  RH  036%=      5-min Rain = 0
KES1 041703Z 06010KT 36/18 A2999 RMK A01 T03580181  RH  035%=      5-min Rain = 0
KES1 041704Z 07013KT 36/18 A2999 RMK A01 T03560180  RH  035%=      5-min Rain = 0
KES1 041705Z 07011KT 35/18 A2999 RMK A01 T03530178  RH  035%=      5-min Rain = 0
KES1 041706Z 07010KT 35/18 A2999 RMK A01 T03500178  RH  036%=      5-min Rain = 0
KES1 041707Z 07009KT 35/18 A2999 RMK A01 T03500178  RH  036%=      5-min Rain = 0
KES1 041708Z 07008KT 35/18 A2999 RMK A01 T03500177  RH  036%=      5-min Rain = 0
KES1 041709Z 06007KT 35/18 A2999 RMK A01 T03480177  RH  036%=      5-min Rain = 0
KES1 041710Z 08009KT 35/18 A2999 RMK A01 T03490178  RH  036%=      5-min Rain = 0
KES1 041711Z 08008KT 35/18 A2999 RMK A01 T03510177  RH  036%=      5-min Rain = 0
KES1 041712Z 07007KT 35/17 A2999 RMK A01 T03510174  RH  035%=      5-min Rain = 0
KES1 041713Z 07005KT 35/18 A2999 RMK A01 T03490177  RH  036%=      5-min Rain = 0
KES1 041714Z 07009KT 35/18 A2999 RMK A01 T03520179  RH  036%=      5-min Rain = 0
KES1 041715Z 06010G15KT 35/18 A2999 RMK A01 T03510178  RH  036%=      5-min Rain = 0
KES1 041716Z 06013KT 35/18 A2999 RMK A01 T03520176  RH  035%=      5-min Rain = 0
KES1 041717Z 07011KT 35/18 A2999 RMK A01 T03490176  RH  036%=      5-min Rain = 0
KES1 041718Z 07008KT 35/17 A2999 RMK A01 T03480172  RH  035%=      5-min Rain = 0
KES1 041719Z 05007KT 35/17 A2999 RMK A01 T03460172  RH  036%=      5-min Rain = 0
KES1 041720Z 05006KT 35/17 A2999 RMK A01 T03460173  RH  036%=      5-min Rain = 0
KES1 041721Z 08007KT 35/18 A2999 RMK A01 T03490176  RH  036%=      5-min Rain = 0
KES1 041722Z 07007KT 35/18 A2999 RMK A01 T03520178  RH  036%=      5-min Rain = 0
KES1 041723Z 05007KT 35/18 A2999 RMK A01 T03540176  RH  035%=      5-min Rain = 0
KES1 041724Z 03009KT 36/17 A2999 RMK A01 T03560174  RH  034%=      5-min Rain = 0
KES1 041725Z 04009KT 36/17 A2999 RMK A01 T03550173  RH  034%=      5-min Rain = 0
KES1 041726Z 05008KT 36/17 A2999 RMK A01 T03550174  RH  034%=      5-min Rain = 0
KES1 041727Z 04008KT 35/18 A2999 RMK A01 T03540175  RH  035%=      5-min Rain = 0
KES1 041728Z 05007G12KT 35/17 A2999 RMK A01 T03540174  RH  034%=      5-min Rain = 0
KES1 041729Z 05009KT 36/18 A2999 RMK A01 T03570178  RH  035%=      5-min Rain = 0
KES1 041730Z 05010KT 36/18 A2999 RMK A01 T03560180  RH  035%=      5-min Rain = 0
KES1 041731Z 06008KT 36/18 A2999 RMK A01 T03570178  RH  035%=      5-min Rain = 0
KES1 041732Z 06008KT 35/18 A2999 RMK A01 T03540178  RH  035%=      5-min Rain = 0
KES1 041733Z 09010KT 36/18 A2999 RMK A01 T03550179  RH  035%=      5-min Rain = 0
KES1 041734Z 10012KT 36/18 A2999 RMK A01 T03560177  RH  035%=      5-min Rain = 0
KES1 041735Z 08012KT 35/18 A2999 RMK A01 T03540178  RH  035%=      5-min Rain = 0
KES1 041736Z 09011KT 35/18 A2999 RMK A01 T03540178  RH  036%=      5-min Rain = 0
KES1 041737Z 07011KT 35/18 A2999 RMK A01 T03540178  RH  036%=      5-min Rain = 0
KES1 041738Z 08010KT 36/18 A2999 RMK A01 T03550179  RH  035%=      5-min Rain = 0
KES1 041739Z 08011KT 36/18 A2999 RMK A01 T03560177  RH  035%=      5-min Rain = 0
KES1 041740Z 08009KT 35/18 A2999 RMK A01 T03540176  RH  035%=      5-min Rain = 0
KES1 041741Z 09008KT 35/17 A2999 RMK A01 T03540174  RH  034%=      5-min Rain = 0
KES1 041742Z 09007KT 35/17 A2999 RMK A01 T03520174  RH  035%=      5-min Rain = 0
KES1 041743Z 10008KT 35/17 A2999 RMK A01 T03530173  RH  035%=      5-min Rain = 0
KES1 041744Z 09009KT 35/17 A2999 RMK A01 T03540173  RH  034%=      5-min Rain = 0
KES1 041745Z 09010KT 36/18 A2999 RMK A01 T03550179  RH  036%=      5-min Rain = 0
KES1 041746Z 09008KT 36/18 A2999 RMK A01 T03560178  RH  035%=      5-min Rain = 0
KES1 041747Z 08008KT 35/18 A2999 RMK A01 T03510176  RH  035%=      5-min Rain = 0
KES1 041748Z 08008KT 35/18 A2999 RMK A01 T03500176  RH  036%=      5-min Rain = 0
KES1 041749Z 11007KT 35/18 A2999 RMK A01 T03510178  RH  036%=      5-min Rain = 0
KES1 041750Z 08008KT 35/18 A2999 RMK A01 T03530179  RH  036%=      5-min Rain = 0
KES1 041751Z 06008KT 36/18 A2999 RMK A01 T03560179  RH  035%=      5-min Rain = 0
KES1 041752Z 07009KT 36/18 A2999 RMK A01 T03590182  RH  035%=      5-min Rain = 0
KES1 041753Z 09010KT 36/18 A2999 RMK A01 T03610182  RH  035%=      5-min Rain = 0
KES1 041754Z 09011G16KT 36/18 A2999 RMK A01 T03630180  RH  034%=      5-min Rain = 0
KES1 041755Z 09007KT 36/18 A2999 RMK A01 T03600178  RH  034%=      5-min Rain = 0
KES1 041756Z 11008KT 36/18 A2999 RMK A01 T03590179  RH  035%=      5-min Rain = 0
KES1 041757Z 11009KT 36/18 A2999 RMK A01 T03580177  RH  034%=      5-min Rain = 0
KES1 041758Z 10007KT 36/18 A2999 RMK A01 T03570178  RH  035%=      5-min Rain = 0
KES1 041759Z 08013KT 36/18 A2999 RMK A01 T03590180  RH  035%=      5-min Rain = 0
KES1 041800Z 08012KT 36/18 A2999 RMK A01 T03600179  RH  034%=      5-min Rain = 0
KES1 041801Z 09010KT 36/18 A2999 RMK A01 T03580177  RH  034%=      5-min Rain = 0
KES1 041802Z 08009KT 36/18 A2999 RMK A01 T03570178  RH  035%=      5-min Rain = 0
KES1 041803Z 06007KT 36/18 A2999 RMK A01 T03590177  RH  034%=      5-min Rain = 0
KES1 041804Z 05006KT 36/18 A2998 RMK A01 T03600178  RH  034%=      5-min Rain = 0
KES1 041805Z 05006KT 36/18 A2998 RMK A01 T03600177  RH  034%=      5-min Rain = 0
KES1 041806Z 09008KT 36/18 A2998 RMK A01 T03600179  RH  034%=      5-min Rain = 0
KES1 041807Z 08011G16KT 36/18 A2998 RMK A01 T03630179  RH  034%=      5-min Rain = 0
KES1 041808Z 07011KT 36/18 A2998 RMK A01 T03620178  RH  034%=      5-min Rain = 0
KES1 041809Z 08008KT 36/18 A2998 RMK A01 T03610178  RH  034%=      5-min Rain = 0
KES1 041810Z 09009KT 36/18 A2998 RMK A01 T03630177  RH  034%=      5-min Rain = 0
KES1 041811Z 09007KT 36/18 A2998 RMK A01 T03630175  RH  033%=      5-min Rain = 0
KES1 041812Z 06005KT 36/18 A2998 RMK A01 T03600175  RH  033%=      5-min Rain = 0
KES1 041813Z 05003KT 36/17 A2998 RMK A01 T03600174  RH  033%=      5-min Rain = 0
KES1 041814Z 09003KT 36/18 A2998 RMK A01 T03600175  RH  034%=      5-min Rain = 0
KES1 041815Z 06001KT 36/18 A2998 RMK A01 T03610178  RH  034%=      5-min Rain = 0
KES1 041816Z 05009G15KT 37/18 A2998 RMK A01 T03650178  RH  033%=      5-min Rain = 0
KES1 041817Z 06011KT 37/18 A2998 RMK A01 T03660177  RH  033%=      5-min Rain = 0
KES1 041818Z 06010KT 36/18 A2998 RMK A01 T03640175  RH  033%=      5-min Rain = 0
KES1 041819Z 06007KT 36/18 A2998 RMK A01 T03610175  RH  033%=      5-min Rain = 0
KES1 041820Z 06006KT 36/17 A2998 RMK A01 T03590174  RH  034%=      5-min Rain = 0
KES1 041821Z 06009KT 36/18 A2998 RMK A01 T03590175  RH  034%=      5-min Rain = 0
KES1 041822Z 08009KT 36/17 A2998 RMK A01 T03600173  RH  033%=      5-min Rain = 0
KES1 041823Z 08006KT 36/17 A2998 RMK A01 T03580173  RH  034%=      5-min Rain = 0
KES1 041824Z 10007KT 36/17 A2998 RMK A01 T03590173  RH  033%=      5-min Rain = 0
KES1 041825Z 04006KT 36/18 A2998 RMK A01 T03610176  RH  034%=      5-min Rain = 0
KES1 041826Z 03007KT 37/17 A2998 RMK A01 T03660174  RH  032%=      5-min Rain = 0
KES1 041827Z 02007KT 37/17 A2998 RMK A01 T03680174  RH  032%=      5-min Rain = 0
KES1 041828Z 02004KT 37/17 A2998 RMK A01 T03670173  RH  032%=      5-min Rain = 0
KES1 041829Z 05003KT 36/17 A2998 RMK A01 T03640172  RH  032%=      5-min Rain = 0
KES1 041830Z 04006KT 37/17 A2998 RMK A01 T03650174  RH  033%=      5-min Rain = 0
KES1 041831Z 06005KT 37/17 A2998 RMK A01 T03650173  RH  032%=      5-min Rain = 0
KES1 041832Z 05008KT 37/18 A2998 RMK A01 T03650175  RH  033%=      5-min Rain = 0
KES1 041833Z 05008KT 37/18 A2998 RMK A01 T03700175  RH  032%=      5-min Rain = 0
KES1 041834Z 06007KT 37/17 A2998 RMK A01 T03700173  RH  032%=      5-min Rain = 0
KES1 041835Z 05007KT 37/17 A2998 RMK A01 T03670172  RH  032%=      5-min Rain = 0
KES1 041836Z 03008KT 37/17 A2998 RMK A01 T03670172  RH  032%=      5-min Rain = 0
KES1 041837Z 02007KT 37/17 A2998 RMK A01 T03660169  RH  031%=      5-min Rain = 0
KES1 041838Z 02005KT 37/17 A2998 RMK A01 T03650169  RH  031%=      5-min Rain = 0
KES1 041839Z 02005KT 36/17 A2998 RMK A01 T03640168  RH  031%=      5-min Rain = 0
KES1 041840Z 02004KT 36/17 A2998 RMK A01 T03640169  RH  032%=      5-min Rain = 0
KES1 041841Z 04009KT 36/17 A2998 RMK A01 T03640171  RH  032%=      5-min Rain = 0
KES1 041842Z 04007G13KT 37/17 A2998 RMK A01 T03660171  RH  032%=      5-min Rain = 0
KES1 041843Z 04008KT 37/17 A2998 RMK A01 T03680173  RH  032%=      5-min Rain = 0
KES1 041844Z 03006KT 37/17 A2998 RMK A01 T03690171  RH  031%=      5-min Rain = 0
KES1 041845Z 01006KT 37/17 A2998 RMK A01 T03680170  RH  031%=      5-min Rain = 0
KES1 041846Z 01007KT 37/17 A2998 RMK A01 T03660169  RH  031%=      5-min Rain = 0
KES1 041847Z 02007KT 36/17 A2998 RMK A01 T03640170  RH  032%=      5-min Rain = 0
KES1 041848Z 05009G14KT 37/17 A2998 RMK A01 T03660174  RH  032%=      5-min Rain = 0
KES1 041849Z 04012KT 37/17 A2998 RMK A01 T03700171  RH  031%=      5-min Rain = 0
KES1 041850Z 04008KT 37/17 A2998 RMK A01 T03720171  RH  031%=      5-min Rain = 0
KES1 041851Z 04006KT 37/17 A2998 RMK A01 T03700169  RH  031%=      5-min Rain = 0
KES1 041852Z 06009KT 37/17 A2998 RMK A01 T03650168  RH  031%=      5-min Rain = 0
KES1 041853Z 05007KT 37/17 A2998 RMK A01 T03650170  RH  032%=      5-min Rain = 0
KES1 041854Z 06006KT 37/17 A2998 RMK A01 T03680169  RH  031%=      5-min Rain = 0
KES1 041855Z 03006KT 37/17 A2998 RMK A01 T03670170  RH  031%=      5-min Rain = 0
KES1 041856Z 04006KT 37/17 A2998 RMK A01 T03690169  RH  031%=      5-min Rain = 0
KES1 041857Z 04008KT 37/17 A2998 RMK A01 T03690169  RH  031%=      5-min Rain = 0
KES1 041858Z 03006KT 37/17 A2998 RMK A01 T03690168  RH  030%=      5-min Rain = 0
KES1 041859Z 03007KT 37/17 A2998 RMK A01 T03680167  RH  030%=      5-min Rain = 0
KES1 041900Z 04009KT 37/17 A2997 RMK A01 T03660168  RH  031%=      5-min Rain = 0
KES1 041901Z 05010KT 37/17 A2998 RMK A01 T03670167  RH  031%=      5-min Rain = 0
KES1 041902Z 06006KT 37/17 A2997 RMK A01 T03670167  RH  031%=      5-min Rain = 0
KES1 041903Z 05007KT 37/17 A2997 RMK A01 T03680169  RH  031%=      5-min Rain = 0
KES1 041904Z 05005KT 37/17 A2997 RMK A01 T03710166  RH  030%=      5-min Rain = 0
KES1 041905Z 07004KT 37/17 A2997 RMK A01 T03680166  RH  030%=      5-min Rain = 0
KES1 041906Z 08003KT 37/17 A2997 RMK A01 T03660167  RH  031%=      5-min Rain = 0
KES1 041907Z 03009KT 37/17 A2997 RMK A01 T03680168  RH  031%=      5-min Rain = 0
KES1 041908Z 03009KT 38/17 A2997 RMK A01 T03760170  RH  030%=      5-min Rain = 0
KES1 041909Z 02009KT 38/17 A2997 RMK A01 T03770167  RH  029%=      5-min Rain = 0
KES1 041910Z 02009KT 38/17 A2997 RMK A01 T03750166  RH  029%=      5-min Rain = 0
KES1 041911Z 01010KT 37/17 A2997 RMK A01 T03740166  RH  029%=      5-min Rain = 0
KES1 041912Z 03009KT 38/17 A2997 RMK A01 T03750167  RH  029%=      5-min Rain = 0
KES1 041913Z 03006KT 38/17 A2997 RMK A01 T03760166  RH  029%=      5-min Rain = 0
KES1 041914Z 05009KT 38/17 A2997 RMK A01 T03750167  RH  029%=      5-min Rain = 0
KES1 041915Z 08006KT 37/17 A2997 RMK A01 T03730165  RH  029%=      5-min Rain = 0
KES1 041916Z 07005KT 37/16 A2997 RMK A01 T03690163  RH  030%=      5-min Rain = 0
KES1 041917Z 03003KT 37/17 A2997 RMK A01 T03680167  RH  031%=      5-min Rain = 0
KES1 041918Z 02006G11KT 37/17 A2996 RMK A01 T03720165  RH  030%=      5-min Rain = 0
KES1 041919Z 33005KT 37/16 A2996 RMK A01 T03700163  RH  029%=      5-min Rain = 0
KES1 041920Z 02005KT 37/16 A2996 RMK A01 T03680164  RH  030%=      5-min Rain = 0
KES1 041921Z 35005KT 37/16 A2996 RMK A01 T03690164  RH  030%=      5-min Rain = 0
KES1 041922Z 35004KT 37/16 A2996 RMK A01 T03700161  RH  029%=      5-min Rain = 0
KES1 041923Z 34006KT 37/16 A2996 RMK A01 T03660161  RH  030%=      5-min Rain = 0
KES1 041924Z 32006KT 37/16 A2996 RMK A01 T03660162  RH  030%=      5-min Rain = 0
KES1 041925Z 02006KT 37/16 A2996 RMK A01 T03670164  RH  030%=      5-min Rain = 0
KES1 041926Z 36008KT 37/17 A2996 RMK A01 T03700165  RH  030%=      5-min Rain = 0
KES1 041927Z 01006KT 37/16 A2996 RMK A01 T03690163  RH  030%=      5-min Rain = 0
KES1 041928Z 05007KT 37/17 A2996 RMK A01 T03680168  RH  031%=      5-min Rain = 0
KES1 041929Z 04008G13KT 37/17 A2996 RMK A01 T03740169  RH  030%=      5-min Rain = 0
KES1 041930Z 03009KT 38/17 A2996 RMK A01 T03770167  RH  029%=      5-min Rain = 0
KES1 041931Z 06008KT 38/17 A2996 RMK A01 T03750168  RH  030%=      5-min Rain = 0
KES1 041932Z 09009KT 38/17 A2996 RMK A01 T03760168  RH  029%=      5-min Rain = 0
KES1 041933Z 08009KT 38/17 A2996 RMK A01 T03760166  RH  029%=      5-min Rain = 0
KES1 041934Z 08009KT 38/17 A2996 RMK A01 T03760168  RH  029%=      5-min Rain = 0
KES1 041935Z 10007KT 38/17 A2996 RMK A01 T03770165  RH  029%=      5-min Rain = 0
KES1 041936Z 06002KT 37/16 A2996 RMK A01 T03710161  RH  029%=      5-min Rain = 0
KES1 041937Z 24001KT 37/16 A2995 RMK A01 T03680163  RH  030%=      5-min Rain = 0
KES1 041938Z 10004KT 37/16 A2995 RMK A01 T03700164  RH  030%=      5-min Rain = 0
KES1 041939Z 06006G11KT 37/17 A2995 RMK A01 T03720165  RH  030%=      5-min Rain = 0
KES1 041940Z 02010KT 38/16 A2995 RMK A01 T03760164  RH  029%=      5-min Rain = 0
KES1 041941Z 01008KT 38/16 A2995 RMK A01 T03760162  RH  028%=      5-min Rain = 0
KES1 041942Z 02005KT 37/16 A2995 RMK A01 T03740163  RH  029%=      5-min Rain = 0
KES1 041943Z 02007KT 38/16 A2995 RMK A01 T03750162  RH  028%=      5-min Rain = 0
KES1 041944Z 03007KT 37/16 A2995 RMK A01 T03740162  RH  029%=      5-min Rain = 0
KES1 041945Z 03008KT 37/16 A2995 RMK A01 T03740162  RH  029%=      5-min Rain = 0
KES1 041946Z 05010KT 38/17 A2995 RMK A01 T03770165  RH  029%=      5-min Rain = 0
KES1 041947Z 04009KT 38/16 A2995 RMK A01 T03790164  RH  028%=      5-min Rain = 0
KES1 041948Z 05004KT 38/16 A2995 RMK A01 T03780161  RH  028%=      5-min Rain = 0
KES1 041949Z 08002KT 37/16 A2995 RMK A01 T03730159  RH  028%=      5-min Rain = 0
KES1 041950Z 06002KT 37/16 A2995 RMK A01 T03710160  RH  029%=      5-min Rain = 0
KES1 041951Z 36005KT 37/16 A2995 RMK A01 T03710160  RH  029%=      5-min Rain = 0
KES1 041952Z 01005KT 37/16 A2995 RMK A01 T03720163  RH  029%=      5-min Rain = 0
KES1 041953Z 05007KT 38/16 A2995 RMK A01 T03770164  RH  029%=      5-min Rain = 0
KES1 041954Z 04008KT 38/16 A2995 RMK A01 T03780164  RH  028%=      5-min Rain = 0
KES1 041955Z 05006KT 38/16 A2995 RMK A01 T03790162  RH  028%=      5-min Rain = 0
KES1 041956Z 03005KT 38/16 A2995 RMK A01 T03760161  RH  028%=      5-min Rain = 0
KES1 041957Z 01004KT 37/16 A2994 RMK A01 T03720158  RH  028%=      5-min Rain = 0
KES1 041958Z 07006KT 37/16 A2994 RMK A01 T03700162  RH  029%=      5-min Rain = 0
KES1 041959Z 07008KT 37/16 A2994 RMK A01 T03740163  RH  029%=      5-min Rain = 0
KES1 042000Z 07010KT 38/16 A2994 RMK A01 T03760162  RH  028%=      5-min Rain = 0
KES1 042001Z 05007KT 37/16 A2994 RMK A01 T03740159  RH  028%=      5-min Rain = 0
KES1 042002Z 07006KT 37/16 A2994 RMK A01 T03730162  RH  029%=      5-min Rain = 0
KES1 042003Z 06005KT 38/16 A2994 RMK A01 T03770162  RH  028%=      5-min Rain = 0
KES1 042004Z 05007KT 38/16 A2994 RMK A01 T03780161  RH  028%=      5-min Rain = 0
KES1 042005Z 03006KT 38/16 A2994 RMK A01 T03790160  RH  028%=      5-min Rain = 0
KES1 042006Z 01003KT 38/16 A2994 RMK A01 T03770158  RH  027%=      5-min Rain = 0
KES1 042007Z 01004KT 38/16 A2994 RMK A01 T03750157  RH  028%=      5-min Rain = 0
KES1 042008Z 02004KT 37/16 A2994 RMK A01 T03740158  RH  028%=      5-min Rain = 0
KES1 042009Z 02006KT 38/16 A2993 RMK A01 T03790163  RH  028%=      5-min Rain = 0
KES1 042010Z 01007KT 38/16 A2993 RMK A01 T03820159  RH  027%=      5-min Rain = 0
KES1 042011Z 36006KT 38/16 A2993 RMK A01 T03780156  RH  027%=      5-min Rain = 0
KES1 042012Z 00005KT 37/16 A2993 RMK A01 T03730156  RH  028%=      5-min Rain = 0
KES1 042013Z 03006KT 37/16 A2993 RMK A01 T03730158  RH  028%=      5-min Rain = 0
KES1 042014Z 08005KT 38/16 A2993 RMK A01 T03760161  RH  028%=      5-min Rain = 0
KES1 042015Z 06006KT 38/16 A2993 RMK A01 T03790161  RH  028%=      5-min Rain = 0
KES1 042016Z 04008KT 38/16 A2993 RMK A01 T03820159  RH  027%=      5-min Rain = 0
KES1 042017Z 05008KT 38/16 A2993 RMK A01 T03820159  RH  027%=      5-min Rain = 0
KES1 042018Z 04009KT 38/16 A2993 RMK A01 T03830159  RH  027%=      5-min Rain = 0
KES1 042019Z 05004KT 38/16 A2993 RMK A01 T03820157  RH  027%=      5-min Rain = 0
KES1 042020Z 07010KT 38/16 A2992 RMK A01 T03770156  RH  027%=      5-min Rain = 0
KES1 042021Z 07008KT 38/16 A2992 RMK A01 T03760157  RH  027%=      5-min Rain = 0
KES1 042022Z 05012KT 38/16 A2992 RMK A01 T03790159  RH  027%=      5-min Rain = 0
KES1 042023Z 05006KT 38/16 A2993 RMK A01 T03800157  RH  027%=      5-min Rain = 0
KES1 042024Z 04002KT 38/15 A2992 RMK A01 T03770153  RH  027%=      5-min Rain = 0
KES1 042025Z 34002KT 37/15 A2992 RMK A01 T03740154  RH  027%=      5-min Rain = 0
KES1 042026Z 35004KT 37/15 A2992 RMK A01 T03730154  RH  027%=      5-min Rain = 0
KES1 042027Z 01008KT 37/16 A2992 RMK A01 T03740156  RH  027%=      5-min Rain = 0
KES1 042028Z 01009KT 38/16 A2992 RMK A01 T03770157  RH  027%=      5-min Rain = 0
KES1 042029Z 00008KT 38/15 A2992 RMK A01 T03790154  RH  027%=      5-min Rain = 0
KES1 042030Z 04005KT 38/16 A2992 RMK A01 T03780157  RH  027%=      5-min Rain = 0
KES1 042031Z 08007KT 38/16 A2992 RMK A01 T03830163  RH  027%=      5-min Rain = 0
KES1 042032Z 07006KT 39/16 A2992 RMK A01 T03890160  RH  026%=      5-min Rain = 0
KES1 042033Z 07004KT 39/16 A2992 RMK A01 T03860157  RH  026%=      5-min Rain = 0
KES1 042034Z 08006KT 38/16 A2992 RMK A01 T03820157  RH  027%=      5-min Rain = 0
KES1 042035Z 04004KT 38/15 A2992 RMK A01 T03780153  RH  026%=      5-min Rain = 0
KES1 042036Z 35003KT 37/15 A2992 RMK A01 T03740153  RH  027%=      5-min Rain = 0
KES1 042037Z 35002KT 37/15 A2992 RMK A01 T03730154  RH  027%=      5-min Rain = 0
KES1 042038Z 01002KT 37/15 A2992 RMK A01 T03720154  RH  027%=      5-min Rain = 0
KES1 042039Z 36002KT 37/15 A2991 RMK A01 T03720154  RH  028%=      5-min Rain = 0
KES1 042040Z 01002KT 37/16 A2991 RMK A01 T03730156  RH  028%=      5-min Rain = 0
KES1 042041Z 09005KT 38/16 A2991 RMK A01 T03750157  RH  028%=      5-min Rain = 0
KES1 042042Z 09007KT 38/16 A2991 RMK A01 T03780161  RH  028%=      5-min Rain = 0
KES1 042043Z 11006KT 38/16 A2991 RMK A01 T03800159  RH  027%=      5-min Rain = 0
KES1 042044Z 10005KT 38/16 A2991 RMK A01 T03790158  RH  027%=      5-min Rain = 0
KES1 042045Z 10005KT 38/16 A2991 RMK A01 T03780159  RH  028%=      5-min Rain = 0
KES1 042046Z 14004KT 38/16 A2991 RMK A01 T03800158  RH  027%=      5-min Rain = 0
KES1 042047Z 14001KT 38/16 A2991 RMK A01 T03790156  RH  027%=      5-min Rain = 0
KES1 042048Z 11001G7KT 38/16 A2991 RMK A01 T03790158  RH  027%=      5-min Rain = 0
KES1 042049Z 12007KT 38/16 A2991 RMK A01 T03800158  RH  027%=      5-min Rain = 0
KES1 042050Z 14007KT 38/16 A2991 RMK A01 T03810159  RH  027%=      5-min Rain = 0
KES1 042051Z 15008KT 38/16 A2991 RMK A01 T03830159  RH  027%=      5-min Rain = 0
KES1 042052Z 12007KT 38/16 A2991 RMK A01 T03840162  RH  027%=      5-min Rain = 0
KES1 042053Z 10010KT 39/17 A2991 RMK A01 T03850172  RH  029%=      5-min Rain = 0
KES1 042054Z 09009KT 38/17 A2991 RMK A01 T03840173  RH  029%=      5-min Rain = 0
KES1 042055Z 10011KT 38/17 A2991 RMK A01 T03810172  RH  029%=      5-min Rain = 0
KES1 042056Z 08010KT 38/17 A2991 RMK A01 T03790172  RH  030%=      5-min Rain = 0
KES1 042057Z 08010KT 38/17 A2991 RMK A01 T03800172  RH  030%=      5-min Rain = 0
KES1 042058Z 08011KT 38/17 A2991 RMK A01 T03790171  RH  030%=      5-min Rain = 0
KES1 042059Z 08012KT 38/17 A2991 RMK A01 T03750169  RH  030%=      5-min Rain = 0
KES1 042100Z 07012KT 37/17 A299 RMK A01 T03700168  RH  031%=      5-min Rain = 0
KES1 042101Z 06011KT 37/17 A2991 RMK A01 T03670168  RH  031%=      5-min Rain = 0
KES1 042102Z 05008KT 37/17 A2991 RMK A01 T03650169  RH  031%=      5-min Rain = 0
KES1 042103Z 05007KT 37/17 A2991 RMK A01 T03650171  RH  032%=      5-min Rain = 0
KES1 042104Z 06006KT 37/17 A2991 RMK A01 T03650172  RH  032%=      5-min Rain = 0
KES1 042105Z 07006KT 37/17 A2991 RMK A01 T03650172  RH  032%=      5-min Rain = 0
KES1 042106Z 10006KT 37/17 A2991 RMK A01 T03650168  RH  031%=      5-min Rain = 0
KES1 042107Z 12006KT 36/16 A2991 RMK A01 T03640162  RH  030%=      5-min Rain = 0
KES1 042108Z 12006KT 36/16 A2991 RMK A01 T03640164  RH  031%=      5-min Rain = 0
KES1 042109Z 11005KT 37/16 A2991 RMK A01 T03660164  RH  030%=      5-min Rain = 0
KES1 042110Z 09007KT 37/17 A299 RMK A01 T03680165  RH  030%=      5-min Rain = 0
KES1 042111Z 11008KT 37/17 A299 RMK A01 T03720166  RH  030%=      5-min Rain = 0
KES1 042112Z 12007KT 37/17 A299 RMK A01 T03740165  RH  029%=      5-min Rain = 0
KES1 042113Z 11008KT 38/17 A299 RMK A01 T03770165  RH  029%=      5-min Rain = 0
KES1 042114Z 14009KT 38/17 A299 RMK A01 T03790166  RH  029%=      5-min Rain = 0
KES1 042115Z 12006KT 38/16 A2991 RMK A01 T03810163  RH  028%=      5-min Rain = 0
KES1 042116Z 11009KT 38/16 A299 RMK A01 T03790163  RH  028%=      5-min Rain = 0
KES1 042117Z 10007KT 38/16 A2991 RMK A01 T03790164  RH  028%=      5-min Rain = 0
KES1 042118Z 10007KT 38/16 A2991 RMK A01 T03810163  RH  028%=      5-min Rain = 0
KES1 042119Z 13006KT 38/16 A2991 RMK A01 T03810163  RH  028%=      5-min Rain = 0
KES1 042120Z 16003KT 38/16 A2991 RMK A01 T03810162  RH  028%=      5-min Rain = 0
KES1 042121Z 22001KT 38/16 A2991 RMK A01 T03800159  RH  027%=      5-min Rain = 0
KES1 042122Z 16001KT 38/16 A2991 RMK A01 T03830161  RH  027%=      5-min Rain = 0
KES1 042123Z 11003KT 39/16 A2991 RMK A01 T03850161  RH  027%=      5-min Rain = 0
KES1 042124Z 12005KT 39/17 A2991 RMK A01 T03850165  RH  027%=      5-min Rain = 0
KES1 042125Z 09005KT 39/17 A2991 RMK A01 T03880165  RH  027%=      5-min Rain = 0
KES1 042126Z 08004G9KT 39/16 A2991 RMK A01 T03860163  RH  027%=      5-min Rain = 0
KES1 042127Z 10009KT 38/17 A2991 RMK A01 T03820165  RH  028%=      5-min Rain = 0
KES1 042128Z 10006KT 38/17 A2991 RMK A01 T03780165  RH  029%=      5-min Rain = 0
KES1 042129Z 11007KT 37/17 A2991 RMK A01 T03740166  RH  029%=      5-min Rain = 0
KES1 042130Z 11007KT 37/17 A2991 RMK A01 T03740166  RH  029%=      5-min Rain = 0
KES1 042131Z 12008KT 37/17 A2991 RMK A01 T03720166  RH  030%=      5-min Rain = 0
KES1 042132Z 11006KT 37/17 A2991 RMK A01 T03700165  RH  030%=      5-min Rain = 0
KES1 042133Z 09004G10KT 37/16 A2991 RMK A01 T03690164  RH  030%=      5-min Rain = 0
KES1 042134Z 09006KT 37/17 A2991 RMK A01 T03690165  RH  030%=      5-min Rain = 0
KES1 042135Z 07005KT 37/16 A2991 RMK A01 T03690164  RH  030%=      5-min Rain = 0
KES1 042136Z 06007KT 37/16 A2991 RMK A01 T03680164  RH  030%=      5-min Rain = 0
KES1 042137Z 06010KT 37/16 A2991 RMK A01 T03690164  RH  030%=      5-min Rain = 0
KES1 042138Z 06010KT 37/16 A2991 RMK A01 T03700164  RH  030%=      5-min Rain = 0
KES1 042139Z 07013KT 37/16 A2991 RMK A01 T03710164  RH  029%=      5-min Rain = 0
KES1 042140Z 06012KT 37/16 A2991 RMK A01 T03700162  RH  029%=      5-min Rain = 0
KES1 042141Z 06010KT 37/16 A2991 RMK A01 T03690162  RH  029%=      5-min Rain = 0
KES1 042142Z 06010KT 37/16 A2991 RMK A01 T03690162  RH  029%=      5-min Rain = 0
KES1 042143Z 06011KT 37/16 A299 RMK A01 T03680161  RH  029%=      5-min Rain = 0
KES1 042144Z 07008KT 37/16 A299 RMK A01 T03680162  RH  030%=      5-min Rain = 0
KES1 042145Z 06007KT 37/16 A299 RMK A01 T03680162  RH  030%=      5-min Rain = 0
KES1 042146Z 05008KT 37/16 A299 RMK A01 T03680163  RH  030%=      5-min Rain = 0
KES1 042147Z 05008G13KT 37/16 A299 RMK A01 T03680163  RH  030%=      5-min Rain = 0
KES1 042148Z 06014KT 37/16 A2991 RMK A01 T03680163  RH  030%=      5-min Rain = 0
KES1 042149Z 06020G25KT 37/18 A2991 RMK A01 T03650179  RH  034%=      5-min Rain = 0
KES1 042150Z 06020G25KT 35/19 A2991 RMK A01 T03470190  RH  040%=      5-min Rain = 0
KES1 042151Z 06023KT 34/19 A2991 RMK A01 T03350193  RH  043%=      5-min Rain = 0
KES1 042152Z 05021G26KT 33/19 A2991 RMK A01 T03290194  RH  045%=      5-min Rain = 0
KES1 042153Z 05021KT 33/20 A2991 RMK A01 T03270195  RH  046%=      5-min Rain = 0
KES1 042154Z 05024G29KT 32/20 A2991 RMK A01 T03240196  RH  047%=      5-min Rain = 0
KES1 042155Z 05023KT 32/20 A2991 RMK A01 T03210196  RH  048%=      5-min Rain = 0
KES1 042156Z 05018G24KT 32/20 A2991 RMK A01 T03200197  RH  048%=      5-min Rain = 0
KES1 042157Z 06022G29KT 32/20 A2991 RMK A01 T03200198  RH  048%=      5-min Rain = 0
KES1 042158Z 06022KT 32/20 A2991 RMK A01 T03190199  RH  049%=      5-min Rain = 0
KES1 042159Z 06018G23KT 32/20 A2991 RMK A01 T03180199  RH  050%=      5-min Rain = 0
KES1 042200Z 06018G26KT 32/20 A2991 RMK A01 T03170199  RH  050%=      5-min Rain = 0
KES1 042201Z 06019KT 32/20 A2991 RMK A01 T03160199  RH  050%=      5-min Rain = 0
KES1 042202Z 06021G26KT 31/20 A2991 RMK A01 T03140198  RH  050%=      5-min Rain = 0
KES1 042203Z 06021G27KT 31/20 A2991 RMK A01 T03140197  RH  050%=      5-min Rain = 0
KES1 042204Z 07022G27KT 31/20 A2991 RMK A01 T03130198  RH  050%=      5-min Rain = 0
KES1 042205Z 06019G24KT 31/20 A2991 RMK A01 T03120197  RH  050%=      5-min Rain = 0
KES1 042206Z 06018KT 31/20 A2991 RMK A01 T03120196  RH  050%=      5-min Rain = 0
KES1 042207Z 05017G24KT 31/20 A2991 RMK A01 T03130197  RH  050%=      5-min Rain = 0
KES1 042208Z 05018KT 31/20 A2991 RMK A01 T03130197  RH  050%=      5-min Rain = 0
KES1 042209Z 06019G25KT 31/20 A2991 RMK A01 T03140197  RH  050%=      5-min Rain = 0
KES1 042210Z 06019G24KT 31/20 A2991 RMK A01 T03130197  RH  050%=      5-min Rain = 0
KES1 042211Z 06015G20KT 31/20 A2991 RMK A01 T03130197  RH  050%=      5-min Rain = 0
KES1 042212Z 06018G23KT 31/20 A2992 RMK A01 T03130197  RH  050%=      5-min Rain = 0
KES1 042213Z 05014KT 31/20 A2992 RMK A01 T03130197  RH  050%=      5-min Rain = 0
KES1 042214Z 06014KT 31/20 A2992 RMK A01 T03130197  RH  050%=      5-min Rain = 0
KES1 042215Z 05015G24KT 31/20 A2992 RMK A01 T03130197  RH  050%=      5-min Rain = 0
KES1 042216Z 05017G24KT 31/20 A2992 RMK A01 T03130196  RH  050%=      5-min Rain = 0
KES1 042217Z 04016G23KT 31/20 A2993 RMK A01 T03130195  RH  050%=      5-min Rain = 0
KES1 042218Z 05019G24KT 31/19 A2993 RMK A01 T03120193  RH  049%=      5-min Rain = 0
KES1 042219Z 05017KT 31/19 A2993 RMK A01 T03110191  RH  049%=      5-min Rain = 0
KES1 042220Z 05018KT 31/19 A2993 RMK A01 T03090191  RH  049%=      5-min Rain = 0
KES1 042221Z 05015KT 31/19 A2993 RMK A01 T03080190  RH  049%=      5-min Rain = 0
KES1 042222Z 06013KT 31/19 A2993 RMK A01 T03080190  RH  049%=      5-min Rain = 0
KES1 042223Z 06015G24KT 31/19 A2993 RMK A01 T03070189  RH  049%=      5-min Rain = 0
KES1 042224Z 05021KT 31/19 A2993 RMK A01 T03050186  RH  049%=      5-min Rain = 0
KES1 042225Z 05018G23KT 30/19 A2994 RMK A01 T02990191  RH  052%=      5-min Rain = 0
KES1 042226Z 05017G22KT 29/19 A2994 RMK A01 T02910193  RH  056%=      5-min Rain = 0
KES1 042227Z 05013KT 28/20 A2994 RMK A01 T02840195  RH  059%=      5-min Rain = 0
KES1 042228Z 04010G16KT 28/19 A2995 RMK A01 T02790194  RH  060%=      5-min Rain = 0
KES1 042229Z 02008KT 28/20 A2996 RMK A01 T02770196  RH  061%=      5-min Rain = 0
KES1 042230Z 35006KT 28/20 A2996 RMK A01 T02760200  RH  063%=      5-min Rain = 0.01
KES1 042231Z 33009KT 27/21 A2997 RMK A01 T02740206  RH  066%=      5-min Rain = 0
KES1 042232Z 29011KT 27/21 A2999 RMK A01 T02690208  RH  069%=      5-min Rain = 0.02
KES1 042233Z 27012KT 26/21 A2999 RMK A01 T02630212  RH  073%=      5-min Rain = 0.01
KES1 042234Z 29012G17KT 26/21 A2999 RMK A01 T02560212  RH  077%=      5-min Rain = 0
KES1 042235Z 29010KT 25/21 A2999 RMK A01 T02520212  RH  078%=      5-min Rain = 0.01
KES1 042236Z 29015KT 25/21 A2999 RMK A01 T02490211  RH  080%=      5-min Rain = 0
KES1 042237Z 28018G23KT 25/21 A2999 RMK A01 T02460209  RH  080%=      5-min Rain = 0.01
KES1 042238Z 27017G27KT 24/21 A2999 RMK A01 T02420209  RH  082%=      5-min Rain = 0.01
KES1 042239Z 26021G28KT 24/21 A2998 RMK A01 T02370209  RH  085%=      5-min Rain = 0.02
KES1 042240Z 26017G23KT 23/21 A2999 RMK A01 T02320211  RH  088%=      5-min Rain = 0.02
KES1 042241Z 26020KT 23/21 A2999 RMK A01 T02290211  RH  090%=      5-min Rain = 0.02
KES1 042242Z 26015KT 23/21 A2999 RMK A01 T02260210  RH  091%=      5-min Rain = 0.01
KES1 042243Z 26014KT 23/21 A30 RMK A01 T02250211  RH  091%=      5-min Rain = 0.01
KES1 042244Z 26012KT 23/21 A30 RMK A01 T02250211  RH  092%=      5-min Rain = 0.01
KES1 042245Z 26010KT 22/21 A30 RMK A01 T02240210  RH  092%=      5-min Rain = 0.02
KES1 042246Z 26010KT 22/21 A30 RMK A01 T02240210  RH  092%=      5-min Rain = 0.01
KES1 042247Z 26009KT 22/21 A30 RMK A01 T02240211  RH  092%=      5-min Rain = 0.01
KES1 042248Z 26007KT 22/21 A30 RMK A01 T02240211  RH  092%=      5-min Rain = 0
KES1 042249Z 26007KT 22/21 A30 RMK A01 T02240212  RH  093%=      5-min Rain = 0.01
KES1 042250Z 27006KT 22/21 A30 RMK A01 T02240212  RH  093%=      5-min Rain = 0.01
KES1 042251Z 26004KT 22/21 A30 RMK A01 T02240213  RH  093%=      5-min Rain = 0.01
KES1 042252Z 28003KT 22/21 A2999 RMK A01 T02240213  RH  094%=      5-min Rain = 0.02
KES1 042253Z 29003KT 22/21 A2999 RMK A01 T02240213  RH  094%=      5-min Rain = 0
KES1 042254Z 31005KT 22/21 A2999 RMK A01 T02240214  RH  094%=      5-min Rain = 0.02
KES1 042255Z 33006KT 23/22 A2999 RMK A01 T02250215  RH  094%=      5-min Rain = 0.03
KES1 042256Z 35006KT 23/22 A2998 RMK A01 T02260217  RH  095%=      5-min Rain = 0.04
KES1 042257Z 01006KT 23/22 A2998 RMK A01 T02280218  RH  095%=      5-min Rain = 0.04
KES1 042258Z 02007KT 23/22 A2998 RMK A01 T02270215  RH  093%=      5-min Rain = 0.03
KES1 042259Z 02007KT 23/21 A2998 RMK A01 T02260211  RH  091%=      5-min Rain = 0
KES1 042300Z 01008KT 23/21 A2998 RMK A01 T02260212  RH  092%=      5-min Rain = 0
KES1 042301Z 00008KT 23/21 A2998 RMK A01 T02260210  RH  091%=      5-min Rain = 0.01
KES1 042302Z 00008KT 23/21 A2998 RMK A01 T02290212  RH  091%=      5-min Rain = 0
KES1 042303Z 02008KT 23/21 A2998 RMK A01 T02290214  RH  091%=      5-min Rain = 0
KES1 042304Z 01009KT 23/21 A2998 RMK A01 T02290214  RH  091%=      5-min Rain = 0
KES1 042305Z 01009KT 23/22 A2998 RMK A01 T02300215  RH  091%=      5-min Rain = 0.01
KES1 042306Z 01008KT 23/22 A2998 RMK A01 T02300215  RH  091%=      5-min Rain = 0
KES1 042307Z 01008KT 23/21 A2998 RMK A01 T02310214  RH  090%=      5-min Rain = 0
KES1 042308Z 01007KT 23/22 A2998 RMK A01 T02310215  RH  091%=      5-min Rain = 0
KES1 042309Z 01011KT 23/22 A2998 RMK A01 T02320216  RH  091%=      5-min Rain = 0
KES1 042310Z 02009KT 23/22 A2998 RMK A01 T02320216  RH  091%=      5-min Rain = 0
KES1 042311Z 02008KT 23/22 A2998 RMK A01 T02320217  RH  092%=      5-min Rain = 0
KES1 042312Z 01007KT 23/22 A2998 RMK A01 T02310218  RH  092%=      5-min Rain = 0
KES1 042313Z 02008KT 23/22 A2998 RMK A01 T02310219  RH  093%=      5-min Rain = 0
KES1 042314Z 01008KT 23/22 A2998 RMK A01 T02290218  RH  093%=      5-min Rain = 0
KES1 042315Z 01009KT 23/22 A2998 RMK A01 T02290218  RH  093%=      5-min Rain = 0
KES1 042316Z 02010KT 23/22 A2998 RMK A01 T02280216  RH  093%=      5-min Rain = 0
KES1 042317Z 03008KT 23/22 A2998 RMK A01 T02280215  RH  093%=      5-min Rain = 0
KES1 042318Z 03007KT 23/22 A2998 RMK A01 T02280215  RH  093%=      5-min Rain = 0
KES1 042319Z 04006KT 23/22 A2998 RMK A01 T02280216  RH  093%=      5-min Rain = 0
KES1 042320Z 04006KT 23/22 A2997 RMK A01 T02270215  RH  093%=      5-min Rain = 0
KES1 042321Z 05006KT 23/21 A2997 RMK A01 T02270214  RH  092%=      5-min Rain = 0
KES1 042322Z 05005KT 23/21 A2997 RMK A01 T02270214  RH  092%=      5-min Rain = 0
KES1 042323Z 07005KT 23/21 A2997 RMK A01 T02280213  RH  091%=      5-min Rain = 0
KES1 042324Z 07005KT 23/21 A2997 RMK A01 T02270213  RH  092%=      5-min Rain = 0
KES1 042325Z 08004KT 23/21 A2996 RMK A01 T02280214  RH  092%=      5-min Rain = 0
KES1 042326Z 08005KT 23/22 A2996 RMK A01 T02280215  RH  092%=      5-min Rain = 0.01
KES1 042327Z 08006KT 23/22 A2996 RMK A01 T02280216  RH  092%=      5-min Rain = 0
KES1 042328Z 08006KT 23/22 A2996 RMK A01 T02280215  RH  092%=      5-min Rain = 0
KES1 042329Z 08006KT 23/22 A2996 RMK A01 T02280215  RH  092%=      5-min Rain = 0
KES1 042330Z 08007KT 23/22 A2996 RMK A01 T02290216  RH  093%=      5-min Rain = 0
KES1 042331Z 08007KT 23/22 A2996 RMK A01 T02290216  RH  093%=      5-min Rain = 0
KES1 042332Z 09008KT 23/22 A2996 RMK A01 T02290216  RH  093%=      5-min Rain = 0
KES1 042333Z 10009KT 23/22 A2996 RMK A01 T02290217  RH  093%=      5-min Rain = 0
KES1 042334Z 10010KT 23/22 A2996 RMK A01 T02290217  RH  093%=      5-min Rain = 0
KES1 042335Z 10011KT 23/22 A2996 RMK A01 T02290217  RH  093%=      5-min Rain = 0
KES1 042336Z 09010KT 23/22 A2996 RMK A01 T02290218  RH  093%=      5-min Rain = 0
KES1 042337Z 09010KT 23/22 A2995 RMK A01 T02290218  RH  094%=      5-min Rain = 0
KES1 042338Z 09010KT 23/22 A2995 RMK A01 T02290219  RH  094%=      5-min Rain = 0
KES1 042339Z 09009KT 23/22 A2995 RMK A01 T02290219  RH  094%=      5-min Rain = 0
KES1 042340Z 09009KT 23/22 A2995 RMK A01 T02300220  RH  094%=      5-min Rain = 0
KES1 042341Z 10008KT 23/22 A2994 RMK A01 T02300220  RH  094%=      5-min Rain = 0
KES1 042342Z 10010KT 23/22 A2994 RMK A01 T02300220  RH  094%=      5-min Rain = 0
KES1 042343Z 10011KT 23/22 A2994 RMK A01 T02300220  RH  094%=      5-min Rain = 0
KES1 042344Z 11011KT 23/22 A2993 RMK A01 T02300220  RH  094%=      5-min Rain = 0
KES1 042345Z 10012KT 23/22 A2993 RMK A01 T02300220  RH  094%=      5-min Rain = 0
KES1 042346Z 10011KT 23/22 A2993 RMK A01 T02300219  RH  094%=      5-min Rain = 0
KES1 042347Z 10012KT 23/22 A2993 RMK A01 T02300218  RH  093%=      5-min Rain = 0
KES1 042348Z 10010KT 23/22 A2993 RMK A01 T02300217  RH  092%=      5-min Rain = 0
KES1 042349Z 10012KT 23/22 A2993 RMK A01 T02300216  RH  092%=      5-min Rain = 0
KES1 042350Z 10011KT 23/22 A2993 RMK A01 T02300216  RH  092%=      5-min Rain = 0
KES1 042351Z 10010KT 23/22 A2993 RMK A01 T02300216  RH  092%=      5-min Rain = 0
KES1 042352Z 11012KT 23/22 A2993 RMK A01 T02300216  RH  092%=      5-min Rain = 0
KES1 042353Z 11011KT 23/22 A2993 RMK A01 T02310217  RH  092%=      5-min Rain = 0
KES1 042354Z 11013KT 23/22 A2993 RMK A01 T02310217  RH  092%=      5-min Rain = 0
KES1 042355Z 11012KT 23/22 A2993 RMK A01 T02320217  RH  091%=      5-min Rain = 0
KES1 042356Z 11012KT 23/22 A2993 RMK A01 T02320217  RH  091%=      5-min Rain = 0
KES1 042357Z 10014KT 23/22 A2993 RMK A01 T02330217  RH  091%=      5-min Rain = 0
KES1 042358Z 10013KT 23/22 A2993 RMK A01 T02330216  RH  090%=      5-min Rain = 0
KES1 042359Z 10012KT 23/22 A2993 RMK A01 T02330216  RH  090%=      5-min Rain = 0
KES1 050000Z 10012KT 23/22 A2993 RMK A01 T02330216  RH  090%=      5-min Rain = 0
KES1 050001Z 11011KT 23/22 A2993 RMK A01 T02330216  RH  090%=      5-min Rain = 0
KES1 050002Z 10013KT 23/22 A2992 RMK A01 T02330215  RH  090%=      5-min Rain = 0
KES1 050003Z 10011KT 23/21 A2992 RMK A01 T02330214  RH  089%=      5-min Rain = 0
KES1 050004Z 10013KT 23/21 A2992 RMK A01 T02330213  RH  088%=      5-min Rain = 0
KES1 050005Z 11012KT 23/21 A2992 RMK A01 T02330210  RH  087%=      5-min Rain = 0
KES1 050006Z 11012KT 23/21 A2992 RMK A01 T02330210  RH  087%=      5-min Rain = 0
KES1 050007Z 10011KT 23/21 A2992 RMK A01 T02330211  RH  087%=      5-min Rain = 0
KES1 050008Z 10012KT 23/21 A2992 RMK A01 T02330210  RH  087%=      5-min Rain = 0
KES1 050009Z 11010KT 23/21 A2992 RMK A01 T02320208  RH  086%=      5-min Rain = 0
KES1 050010Z 11011KT 23/21 A2992 RMK A01 T02320208  RH  086%=      5-min Rain = 0
KES1 050011Z 10012KT 23/20 A2992 RMK A01 T02310204  RH  085%=      5-min Rain = 0
KES1 050012Z 10011G16KT 23/20 A2992 RMK A01 T02310202  RH  084%=      5-min Rain = 0
KES1 050013Z 10010KT 23/20 A2992 RMK A01 T02310201  RH  084%=      5-min Rain = 0
KES1 050014Z 10010KT 23/20 A2992 RMK A01 T02310201  RH  083%=      5-min Rain = 0
KES1 050015Z 09009KT 23/20 A2992 RMK A01 T02310199  RH  082%=      5-min Rain = 0
KES1 050016Z 10008KT 23/20 A2992 RMK A01 T02310201  RH  083%=      5-min Rain = 0
KES1 050017Z 10010KT 23/20 A2992 RMK A01 T02310202  RH  084%=      5-min Rain = 0
KES1 050018Z 10009KT 23/20 A2992 RMK A01 T02310201  RH  083%=      5-min Rain = 0
KES1 050019Z 11009KT 23/20 A2992 RMK A01 T02310201  RH  084%=      5-min Rain = 0
KES1 050020Z 11007KT 23/20 A2992 RMK A01 T02310203  RH  084%=      5-min Rain = 0
KES1 050021Z 10007KT 23/21 A2992 RMK A01 T02310205  RH  085%=      5-min Rain = 0
KES1 050022Z 10006KT 23/21 A2992 RMK A01 T02310205  RH  085%=      5-min Rain = 0
KES1 050023Z 10006KT 23/20 A2992 RMK A01 T02310204  RH  085%=      5-min Rain = 0
KES1 050024Z 11006KT 23/20 A2992 RMK A01 T02310204  RH  085%=      5-min Rain = 0
KES1 050025Z 10006KT 23/20 A2992 RMK A01 T02300204  RH  085%=      5-min Rain = 0
KES1 050026Z 10006KT 23/21 A2992 RMK A01 T02310205  RH  085%=      5-min Rain = 0
KES1 050027Z 11007KT 23/21 A2992 RMK A01 T02320206  RH  085%=      5-min Rain = 0
KES1 050028Z 10008KT 23/21 A2992 RMK A01 T02330205  RH  084%=      5-min Rain = 0
KES1 050029Z 11008KT 23/21 A2992 RMK A01 T02340206  RH  084%=      5-min Rain = 0
KES1 050030Z 11007KT 23/21 A2992 RMK A01 T02340206  RH  084%=      5-min Rain = 0
KES1 050031Z 11008KT 23/21 A2992 RMK A01 T02340208  RH  085%=      5-min Rain = 0
KES1 050032Z 11008KT 23/21 A2992 RMK A01 T02340207  RH  085%=      5-min Rain = 0
KES1 050033Z 11007KT 23/21 A2992 RMK A01 T02340207  RH  085%=      5-min Rain = 0
KES1 050034Z 10007KT 24/21 A2992 RMK A01 T02350208  RH  085%=      5-min Rain = 0
KES1 050035Z 10006KT 24/21 A2992 RMK A01 T02350208  RH  085%=      5-min Rain = 0
KES1 050036Z 10007KT 24/21 A2992 RMK A01 T02350208  RH  085%=      5-min Rain = 0
KES1 050037Z 10007KT 24/21 A2992 RMK A01 T02360208  RH  085%=      5-min Rain = 0
KES1 050038Z 10006KT 24/21 A2992 RMK A01 T02360209  RH  085%=      5-min Rain = 0
KES1 050039Z 11006KT 24/21 A2992 RMK A01 T02370209  RH  084%=      5-min Rain = 0
KES1 050040Z 11006KT 24/21 A2991 RMK A01 T02370209  RH  084%=      5-min Rain = 0
KES1 050041Z 10006KT 24/21 A2991 RMK A01 T02380210  RH  084%=      5-min Rain = 0
KES1 050042Z 11007KT 24/21 A2991 RMK A01 T02390211  RH  084%=      5-min Rain = 0
KES1 050043Z 10007KT 24/21 A2991 RMK A01 T02390210  RH  084%=      5-min Rain = 0
KES1 050044Z 09009KT 24/21 A2991 RMK A01 T02400209  RH  083%=      5-min Rain = 0
KES1 050045Z 10009KT 24/21 A2991 RMK A01 T02410207  RH  081%=      5-min Rain = 0
KES1 050046Z 10007KT 24/21 A2991 RMK A01 T02430210  RH  082%=      5-min Rain = 0
KES1 050047Z 11008KT 24/21 A2991 RMK A01 T02430211  RH  082%=      5-min Rain = 0
KES1 050048Z 11008KT 24/21 A2991 RMK A01 T02420210  RH  082%=      5-min Rain = 0
KES1 050049Z 11007KT 24/21 A2991 RMK A01 T02420211  RH  083%=      5-min Rain = 0
KES1 050050Z 10006KT 24/21 A2991 RMK A01 T02420213  RH  083%=      5-min Rain = 0
KES1 050051Z 11007KT 24/21 A2991 RMK A01 T02420212  RH  083%=      5-min Rain = 0
KES1 050052Z 10008KT 24/21 A2991 RMK A01 T02420212  RH  083%=      5-min Rain = 0
KES1 050053Z 11007KT 24/21 A2991 RMK A01 T02420210  RH  082%=      5-min Rain = 0
KES1 050054Z 10007KT 24/21 A2991 RMK A01 T02430211  RH  082%=      5-min Rain = 0
KES1 050055Z 11007KT 24/21 A2991 RMK A01 T02440211  RH  082%=      5-min Rain = 0
KES1 050056Z 10005KT 24/21 A2991 RMK A01 T02440212  RH  082%=      5-min Rain = 0
KES1 050057Z 10007KT 25/21 A2991 RMK A01 T02450212  RH  082%=      5-min Rain = 0
KES1 050058Z 10006KT 25/21 A2992 RMK A01 T02460210  RH  081%=      5-min Rain = 0
KES1 050059Z 09006KT 25/21 A2992 RMK A01 T02470213  RH  081%=      5-min Rain = 0
KES1 050100Z 09005KT 25/21 A2992 RMK A01 T02480212  RH  080%=      5-min Rain = 0
KES1 050101Z 09006KT 25/21 A2992 RMK A01 T02480213  RH  081%=      5-min Rain = 0
KES1 050102Z 09007KT 25/21 A2992 RMK A01 T02480211  RH  080%=      5-min Rain = 0
KES1 050103Z 09006KT 25/21 A2992 RMK A01 T02490211  RH  079%=      5-min Rain = 0
KES1 050104Z 09006KT 25/21 A2992 RMK A01 T02490211  RH  079%=      5-min Rain = 0
KES1 050105Z 10006KT 25/21 A2992 RMK A01 T02500210  RH  078%=      5-min Rain = 0
KES1 050106Z 11007KT 25/21 A2992 RMK A01 T02500212  RH  079%=      5-min Rain = 0
KES1 050107Z 11006KT 25/21 A2992 RMK A01 T02500209  RH  078%=      5-min Rain = 0
KES1 050108Z 12005KT 25/21 A2992 RMK A01 T02510208  RH  077%=      5-min Rain = 0
KES1 050109Z 12006KT 25/21 A2992 RMK A01 T02520209  RH  077%=      5-min Rain = 0
KES1 050110Z 12006KT 25/21 A2993 RMK A01 T02530211  RH  078%=      5-min Rain = 0
KES1 050111Z 11007KT 25/21 A2993 RMK A01 T02530209  RH  076%=      5-min Rain = 0
KES1 050112Z 11005KT 25/21 A2993 RMK A01 T02540209  RH  076%=      5-min Rain = 0
KES1 050113Z 09005KT 26/21 A2993 RMK A01 T02550212  RH  077%=      5-min Rain = 0
KES1 050114Z 07003KT 26/22 A2993 RMK A01 T02550215  RH  079%=      5-min Rain = 0
KES1 050115Z 05003KT 25/22 A2993 RMK A01 T02540218  RH  080%=      5-min Rain = 0
KES1 050116Z 05003KT 25/22 A2993 RMK A01 T02540220  RH  082%=      5-min Rain = 0
KES1 050117Z 07003KT 25/22 A2993 RMK A01 T02530221  RH  082%=      5-min Rain = 0
KES1 050118Z 09004KT 25/22 A2993 RMK A01 T02520218  RH  081%=      5-min Rain = 0
KES1 050119Z 10004KT 25/22 A2993 RMK A01 T02520221  RH  083%=      5-min Rain = 0
KES1 050120Z 11005KT 25/22 A2993 RMK A01 T02520221  RH  083%=      5-min Rain = 0
KES1 050121Z 13006KT 25/22 A2993 RMK A01 T02520215  RH  080%=      5-min Rain = 0
KES1 050122Z 14008KT 25/21 A2993 RMK A01 T02520212  RH  078%=      5-min Rain = 0
KES1 050123Z 14006KT 25/21 A2993 RMK A01 T02540212  RH  078%=      5-min Rain = 0
KES1 050124Z 14006KT 25/21 A2993 RMK A01 T02540214  RH  078%=      5-min Rain = 0
KES1 050125Z 14006KT 25/22 A2993 RMK A01 T02540216  RH  079%=      5-min Rain = 0
KES1 050126Z 15007KT 25/22 A2993 RMK A01 T02530216  RH  080%=      5-min Rain = 0
KES1 050127Z 15007KT 25/22 A2993 RMK A01 T02530217  RH  081%=      5-min Rain = 0
KES1 050128Z 14007KT 25/22 A2993 RMK A01 T02520217  RH  081%=      5-min Rain = 0
KES1 050129Z 14008KT 25/22 A2994 RMK A01 T02510217  RH  081%=      5-min Rain = 0
KES1 050130Z 14008KT 25/22 A2994 RMK A01 T02500216  RH  081%=      5-min Rain = 0
KES1 050131Z 15008KT 25/21 A2994 RMK A01 T02500214  RH  080%=      5-min Rain = 0
KES1 050132Z 15006KT 25/22 A2994 RMK A01 T02510215  RH  080%=      5-min Rain = 0
KES1 050133Z 16007KT 25/21 A2994 RMK A01 T02510214  RH  080%=      5-min Rain = 0
KES1 050134Z 15007KT 25/22 A2994 RMK A01 T02520217  RH  081%=      5-min Rain = 0
KES1 050135Z 15008KT 25/21 A2994 RMK A01 T02520214  RH  080%=      5-min Rain = 0
KES1 050136Z 15009KT 25/21 A2994 RMK A01 T02520213  RH  079%=      5-min Rain = 0
KES1 050137Z 16009KT 25/21 A2994 RMK A01 T02520213  RH  079%=      5-min Rain = 0
KES1 050138Z 16008KT 25/21 A2994 RMK A01 T02520214  RH  080%=      5-min Rain = 0
KES1 050139Z 16008KT 25/22 A2994 RMK A01 T02520215  RH  080%=      5-min Rain = 0
KES1 050140Z 16009KT 25/21 A2994 RMK A01 T02510214  RH  080%=      5-min Rain = 0
KES1 050141Z 16008KT 25/22 A2994 RMK A01 T02510215  RH  081%=      5-min Rain = 0
KES1 050142Z 17007KT 25/22 A2994 RMK A01 T02500216  RH  081%=      5-min Rain = 0
KES1 050143Z 17007KT 25/22 A2994 RMK A01 T02490216  RH  082%=      5-min Rain = 0
KES1 050144Z 17007KT 25/22 A2994 RMK A01 T02490217  RH  083%=      5-min Rain = 0
KES1 050145Z 17007KT 25/22 A2994 RMK A01 T02480218  RH  083%=      5-min Rain = 0
KES1 050146Z 17007KT 25/22 A2994 RMK A01 T02480218  RH  084%=      5-min Rain = 0
KES1 050147Z 17008KT 25/22 A2994 RMK A01 T02470218  RH  084%=      5-min Rain = 0
KES1 050148Z 17008KT 25/22 A2994 RMK A01 T02460219  RH  085%=      5-min Rain = 0
KES1 050149Z 16008KT 25/22 A2994 RMK A01 T02450218  RH  085%=      5-min Rain = 0
KES1 050150Z 16007KT 25/22 A2994 RMK A01 T02450219  RH  085%=      5-min Rain = 0
KES1 050151Z 16008KT 24/22 A2994 RMK A01 T02440218  RH  086%=      5-min Rain = 0
KES1 050152Z 16008KT 24/22 A2994 RMK A01 T02440218  RH  086%=      5-min Rain = 0
KES1 050153Z 16007KT 24/22 A2994 RMK A01 T02430218  RH  086%=      5-min Rain = 0
KES1 050154Z 16008KT 24/22 A2994 RMK A01 T02430218  RH  086%=      5-min Rain = 0
KES1 050155Z 16007KT 24/22 A2994 RMK A01 T02430219  RH  087%=      5-min Rain = 0
KES1 050156Z 17007KT 24/22 A2994 RMK A01 T02420219  RH  087%=      5-min Rain = 0
KES1 050157Z 17007KT 24/22 A2994 RMK A01 T02420219  RH  087%=      5-min Rain = 0
KES1 050158Z 16006KT 24/22 A2994 RMK A01 T02420220  RH  087%=      5-min Rain = 0
KES1 050159Z 17006KT 24/22 A2994 RMK A01 T02420219  RH  087%=      5-min Rain = 0
KES1 050200Z 17007KT 24/22 A2994 RMK A01 T02410219  RH  087%=      5-min Rain = 0
KES1 050201Z 16007KT 24/22 A2994 RMK A01 T02410217  RH  086%=      5-min Rain = 0
KES1 050202Z 16007KT 24/22 A2994 RMK A01 T02410217  RH  087%=      5-min Rain = 0
KES1 050203Z 16007KT 24/22 A2994 RMK A01 T02410218  RH  087%=      5-min Rain = 0
KES1 050204Z 16008KT 24/22 A2994 RMK A01 T02410218  RH  087%=      5-min Rain = 0
KES1 050205Z 16007KT 24/22 A2994 RMK A01 T02410217  RH  087%=      5-min Rain = 0
KES1 050206Z 15008KT 24/22 A2994 RMK A01 T02410218  RH  087%=      5-min Rain = 0
KES1 050207Z 16008KT 24/22 A2994 RMK A01 T02410217  RH  086%=      5-min Rain = 0
KES1 050208Z 15008KT 24/22 A2994 RMK A01 T02410217  RH  086%=      5-min Rain = 0
KES1 050209Z 16008KT 24/22 A2994 RMK A01 T02410217  RH  086%=      5-min Rain = 0
KES1 050210Z 16008KT 24/22 A2994 RMK A01 T02410217  RH  086%=      5-min Rain = 0
KES1 050211Z 16006KT 24/22 A2994 RMK A01 T02410215  RH  086%=      5-min Rain = 0
KES1 050212Z 16006KT 24/22 A2994 RMK A01 T02410216  RH  086%=      5-min Rain = 0
KES1 050213Z 16007KT 24/22 A2994 RMK A01 T02410216  RH  086%=      5-min Rain = 0
KES1 050214Z 16007KT 24/22 A2994 RMK A01 T02410216  RH  086%=      5-min Rain = 0
KES1 050215Z 15007KT 24/22 A2994 RMK A01 T02410216  RH  086%=      5-min Rain = 0
KES1 050216Z 15007KT 24/22 A2994 RMK A01 T02410216  RH  086%=      5-min Rain = 0
KES1 050217Z 15007KT 24/22 A2994 RMK A01 T02410216  RH  086%=      5-min Rain = 0
KES1 050218Z 15008KT 24/22 A2994 RMK A01 T02410216  RH  086%=      5-min Rain = 0
KES1 050219Z 14008KT 24/22 A2994 RMK A01 T02410215  RH  085%=      5-min Rain = 0
KES1 050220Z 14007KT 24/21 A2994 RMK A01 T02410214  RH  085%=      5-min Rain = 0
KES1 050221Z 14006KT 24/22 A2994 RMK A01 T02420215  RH  085%=      5-min Rain = 0
KES1 050222Z 14007KT 24/22 A2994 RMK A01 T02420215  RH  085%=      5-min Rain = 0
KES1 050223Z 14006KT 24/21 A2994 RMK A01 T02420214  RH  084%=      5-min Rain = 0
KES1 050224Z 13005KT 24/21 A2994 RMK A01 T02430214  RH  084%=      5-min Rain = 0
KES1 050225Z 14005KT 24/21 A2994 RMK A01 T02430214  RH  084%=      5-min Rain = 0
KES1 050226Z 13003KT 24/21 A2994 RMK A01 T02440213  RH  083%=      5-min Rain = 0
KES1 050227Z 12004KT 24/21 A2994 RMK A01 T02440213  RH  083%=      5-min Rain = 0
KES1 050228Z 11004KT 24/21 A2994 RMK A01 T02440213  RH  083%=      5-min Rain = 0
KES1 050229Z 07003KT 24/21 A2994 RMK A01 T02440214  RH  083%=      5-min Rain = 0
KES1 050230Z 06003KT 24/22 A2994 RMK A01 T02440215  RH  084%=      5-min Rain = 0
KES1 050231Z 03003KT 24/22 A2994 RMK A01 T02440215  RH  084%=      5-min Rain = 0
KES1 050232Z 03004KT 24/22 A2994 RMK A01 T02430216  RH  085%=      5-min Rain = 0
KES1 050233Z 03005KT 24/22 A2994 RMK A01 T02430217  RH  085%=      5-min Rain = 0
KES1 050234Z 03005KT 24/22 A2994 RMK A01 T02420218  RH  086%=      5-min Rain = 0
KES1 050235Z 03004KT 24/22 A2994 RMK A01 T02410218  RH  087%=      5-min Rain = 0
KES1 050236Z 04004KT 24/22 A2994 RMK A01 T02410218  RH  087%=      5-min Rain = 0
KES1 050237Z 04004KT 24/22 A2994 RMK A01 T02400218  RH  087%=      5-min Rain = 0
KES1 050238Z 04003KT 24/22 A2994 RMK A01 T02400219  RH  088%=      5-min Rain = 0
KES1 050239Z 05003KT 24/22 A2994 RMK A01 T02400219  RH  088%=      5-min Rain = 0
KES1 050240Z 05002KT 24/22 A2994 RMK A01 T02390219  RH  088%=      5-min Rain = 0
KES1 050241Z 04003KT 24/22 A2994 RMK A01 T02390219  RH  088%=      5-min Rain = 0
KES1 050242Z 04004KT 24/22 A2994 RMK A01 T02390219  RH  089%=      5-min Rain = 0
KES1 050243Z 04004KT 24/22 A2994 RMK A01 T02390219  RH  089%=      5-min Rain = 0
KES1 050244Z 04004KT 24/22 A2994 RMK A01 T02390220  RH  089%=      5-min Rain = 0
KES1 050245Z 04004KT 24/22 A2994 RMK A01 T02390220  RH  089%=      5-min Rain = 0
KES1 050246Z 04003KT 24/22 A2994 RMK A01 T02390220  RH  089%=      5-min Rain = 0
KES1 050247Z 04003KT 24/22 A2994 RMK A01 T02390220  RH  089%=      5-min Rain = 0
KES1 050248Z 03003KT 24/22 A2994 RMK A01 T02390220  RH  089%=      5-min Rain = 0
KES1 050249Z 02003KT 24/22 A2994 RMK A01 T02390220  RH  089%=      5-min Rain = 0
KES1 050250Z 01003KT 24/22 A2994 RMK A01 T02390220  RH  089%=      5-min Rain = 0
KES1 050251Z 01003KT 24/22 A2994 RMK A01 T02390220  RH  089%=      5-min Rain = 0
KES1 050252Z 01003KT 24/22 A2994 RMK A01 T02400221  RH  089%=      5-min Rain = 0
KES1 050253Z 01003KT 24/22 A2993 RMK A01 T02400222  RH  090%=      5-min Rain = 0
KES1 050254Z 01003KT 24/22 A2993 RMK A01 T02400221  RH  089%=      5-min Rain = 0
KES1 050255Z 01003KT 24/22 A2993 RMK A01 T02400221  RH  089%=      5-min Rain = 0
KES1 050256Z 02003KT 24/22 A2993 RMK A01 T02400220  RH  089%=      5-min Rain = 0
KES1 050257Z 02003KT 24/22 A2993 RMK A01 T02400219  RH  088%=      5-min Rain = 0
KES1 050258Z 03003KT 24/22 A2993 RMK A01 T02400220  RH  088%=      5-min Rain = 0
KES1 050259Z 03003KT 24/22 A2993 RMK A01 T02400220  RH  089%=      5-min Rain = 0
KES1 050300Z 03003KT 24/22 A2993 RMK A01 T02400221  RH  089%=      5-min Rain = 0
KES1 050301Z 03004KT 24/22 A2993 RMK A01 T02400222  RH  090%=      5-min Rain = 0
KES1 050302Z 02004KT 24/22 A2993 RMK A01 T02390222  RH  090%=      5-min Rain = 0
KES1 050303Z 02004KT 24/22 A2993 RMK A01 T02390222  RH  090%=      5-min Rain = 0
KES1 050304Z 02004KT 24/22 A2993 RMK A01 T02390223  RH  091%=      5-min Rain = 0
KES1 050305Z 03004KT 24/22 A2993 RMK A01 T02390222  RH  091%=      5-min Rain = 0
KES1 050306Z 02004KT 24/22 A2994 RMK A01 T02380222  RH  090%=      5-min Rain = 0
KES1 050307Z 02004KT 24/22 A2994 RMK A01 T02380221  RH  090%=      5-min Rain = 0
KES1 050308Z 02004KT 24/22 A2994 RMK A01 T02380221  RH  090%=      5-min Rain = 0
KES1 050309Z 02004KT 24/22 A2994 RMK A01 T02380221  RH  090%=      5-min Rain = 0
KES1 050310Z 02004KT 24/22 A2994 RMK A01 T02390222  RH  090%=      5-min Rain = 0
KES1 050311Z 02004KT 24/22 A2993 RMK A01 T02380221  RH  090%=      5-min Rain = 0
KES1 050312Z 02004KT 24/22 A2993 RMK A01 T02380221  RH  090%=      5-min Rain = 0
KES1 050313Z 02004KT 24/22 A2993 RMK A01 T02390221  RH  090%=      5-min Rain = 0
KES1 050314Z 03003KT 24/22 A2993 RMK A01 T02390221  RH  090%=      5-min Rain = 0
KES1 050315Z 03003KT 24/22 A2993 RMK A01 T02390221  RH  090%=      5-min Rain = 0
KES1 050316Z 02003KT 24/22 A2993 RMK A01 T02390221  RH  090%=      5-min Rain = 0
KES1 050317Z 02003KT 24/22 A2993 RMK A01 T02390222  RH  090%=      5-min Rain = 0
KES1 050318Z 02004KT 24/22 A2993 RMK A01 T02390223  RH  090%=      5-min Rain = 0
KES1 050319Z 02004KT 24/22 A2993 RMK A01 T02390224  RH  091%=      5-min Rain = 0
KES1 050320Z 02003KT 24/22 A2993 RMK A01 T02390224  RH  091%=      5-min Rain = 0
KES1 050321Z 03003KT 24/22 A2993 RMK A01 T02390224  RH  091%=      5-min Rain = 0
KES1 050322Z 03003KT 24/22 A2993 RMK A01 T02390223  RH  091%=      5-min Rain = 0
KES1 050323Z 04003KT 24/22 A2993 RMK A01 T02380223  RH  091%=      5-min Rain = 0
KES1 050324Z 05002KT 24/22 A2993 RMK A01 T02380223  RH  091%=      5-min Rain = 0
KES1 050325Z 06002KT 24/22 A2993 RMK A01 T02380224  RH  091%=      5-min Rain = 0
KES1 050326Z 06002KT 24/22 A2993 RMK A01 T02380223  RH  091%=      5-min Rain = 0
KES1 050327Z 05002KT 24/22 A2993 RMK A01 T02370223  RH  092%=      5-min Rain = 0
KES1 050328Z 04003KT 24/22 A2993 RMK A01 T02370224  RH  092%=      5-min Rain = 0
KES1 050329Z 03003KT 24/22 A2993 RMK A01 T02360223  RH  092%=      5-min Rain = 0
KES1 050330Z 03003KT 24/22 A2993 RMK A01 T02360223  RH  092%=      5-min Rain = 0
KES1 050331Z 03004KT 24/22 A2993 RMK A01 T02360223  RH  093%=      5-min Rain = 0
KES1 050332Z 03004KT 24/22 A2993 RMK A01 T02360223  RH  092%=      5-min Rain = 0
KES1 050333Z 03004KT 24/22 A2993 RMK A01 T02360223  RH  092%=      5-min Rain = 0
KES1 050334Z 03004KT 24/22 A2993 RMK A01 T02370223  RH  092%=      5-min Rain = 0
KES1 050335Z 04004KT 24/22 A2993 RMK A01 T02370224  RH  092%=      5-min Rain = 0
KES1 050336Z 04004KT 24/22 A2993 RMK A01 T02370223  RH  092%=      5-min Rain = 0
KES1 050337Z 04004KT 24/22 A2993 RMK A01 T02370224  RH  092%=      5-min Rain = 0
KES1 050338Z 05003KT 24/22 A2993 RMK A01 T02370224  RH  092%=      5-min Rain = 0
KES1 050339Z 05003KT 24/23 A2993 RMK A01 T02370225  RH  093%=      5-min Rain = 0
KES1 050340Z 06003KT 24/23 A2993 RMK A01 T02370225  RH  093%=      5-min Rain = 0
KES1 050341Z 06003KT 24/22 A2993 RMK A01 T02360224  RH  093%=      5-min Rain = 0
KES1 050342Z 06003KT 24/22 A2993 RMK A01 T02360224  RH  093%=      5-min Rain = 0
KES1 050343Z 06004KT 24/23 A2993 RMK A01 T02350225  RH  094%=      5-min Rain = 0
KES1 050344Z 05004KT 24/22 A2993 RMK A01 T02350224  RH  094%=      5-min Rain = 0
KES1 050345Z 05004KT 24/23 A2993 RMK A01 T02350225  RH  094%=      5-min Rain = 0
KES1 050346Z 05004KT 24/23 A2993 RMK A01 T02350225  RH  094%=      5-min Rain = 0
KES1 050347Z 04004KT 24/22 A2993 RMK A01 T02350224  RH  094%=      5-min Rain = 0
KES1 050348Z 04004KT 24/22 A2993 RMK A01 T02350224  RH  093%=      5-min Rain = 0
KES1 050349Z 04004KT 24/22 A2993 RMK A01 T02350224  RH  093%=      5-min Rain = 0
KES1 050350Z 04005KT 24/22 A2993 RMK A01 T02350224  RH  093%=      5-min Rain = 0
KES1 050351Z 04005KT 24/22 A2993 RMK A01 T02360224  RH  093%=      5-min Rain = 0
KES1 050352Z 04005KT 24/22 A2993 RMK A01 T02360224  RH  093%=      5-min Rain = 0
KES1 050353Z 04005KT 24/22 A2993 RMK A01 T02360223  RH  093%=      5-min Rain = 0
KES1 050354Z 04005KT 24/22 A2993 RMK A01 T02360223  RH  093%=      5-min Rain = 0
KES1 050355Z 04005KT 24/22 A2993 RMK A01 T02360223  RH  092%=      5-min Rain = 0
KES1 050356Z 04005KT 24/22 A2993 RMK A01 T02360222  RH  092%=      5-min Rain = 0
KES1 050357Z 04004KT 24/22 A2993 RMK A01 T02350222  RH  092%=      5-min Rain = 0
KES1 050358Z 04004KT 24/22 A2993 RMK A01 T02360221  RH  092%=      5-min Rain = 0
KES1 050359Z 04004KT 24/22 A2993 RMK A01 T02360221  RH  091%=      5-min Rain = 0
KES1 050400Z 04004KT 24/22 A2993 RMK A01 T02360221  RH  091%=      5-min Rain = 0
KES1 050401Z 04004KT 24/22 A2993 RMK A01 T02360221  RH  091%=      5-min Rain = 0
KES1 050402Z 04004KT 24/22 A2993 RMK A01 T02360221  RH  091%=      5-min Rain = 0
KES1 050403Z 04004KT 24/22 A2993 RMK A01 T02360221  RH  091%=      5-min Rain = 0
KES1 050404Z 03003KT 24/22 A2993 RMK A01 T02360220  RH  091%=      5-min Rain = 0
KES1 050405Z 02003KT 24/22 A2993 RMK A01 T02360220  RH  091%=      5-min Rain = 0
KES1 050406Z 02004KT 24/22 A2993 RMK A01 T02360221  RH  091%=      5-min Rain = 0
KES1 050407Z 01003KT 24/22 A2993 RMK A01 T02370221  RH  091%=      5-min Rain = 0
KES1 050408Z 01003KT 24/22 A2993 RMK A01 T02370221  RH  091%=      5-min Rain = 0
KES1 050409Z 01003KT 24/22 A2993 RMK A01 T02370222  RH  091%=      5-min Rain = 0
KES1 050410Z 01003KT 24/22 A2993 RMK A01 T02370222  RH  091%=      5-min Rain = 0
KES1 050411Z 00003KT 24/22 A2993 RMK A01 T02370222  RH  091%=      5-min Rain = 0
KES1 050412Z 00003KT 24/22 A2993 RMK A01 T02370222  RH  091%=      5-min Rain = 0
KES1 050413Z 00002KT 24/22 A2993 RMK A01 T02380224  RH  092%=      5-min Rain = 0
KES1 050414Z 36002KT 24/22 A2993 RMK A01 T02370224  RH  092%=      5-min Rain = 0
KES1 050415Z 35002KT 24/22 A2993 RMK A01 T02370224  RH  092%=      5-min Rain = 0
KES1 050416Z 35002KT 24/22 A2993 RMK A01 T02370224  RH  092%=      5-min Rain = 0
KES1 050417Z 35002KT 24/22 A2993 RMK A01 T02370224  RH  092%=      5-min Rain = 0
KES1 050418Z 35002KT 24/22 A2993 RMK A01 T02370224  RH  092%=      5-min Rain = 0
KES1 050419Z 35002KT 24/22 A2993 RMK A01 T02370224  RH  092%=      5-min Rain = 0
KES1 050420Z 36002KT 24/22 A2993 RMK A01 T02370224  RH  092%=      5-min Rain = 0
KES1 050421Z 35002KT 24/22 A2993 RMK A01 T02370224  RH  092%=      5-min Rain = 0
KES1 050422Z 34001KT 24/22 A2993 RMK A01 T02370223  RH  092%=      5-min Rain = 0.01
KES1 050423Z 33001KT 24/22 A2993 RMK A01 T02370224  RH  093%=      5-min Rain = 0
KES1 050424Z 33001KT 24/23 A2993 RMK A01 T02370225  RH  093%=      5-min Rain = 0
KES1 050425Z 32002KT 24/23 A2993 RMK A01 T02370225  RH  093%=      5-min Rain = 0
KES1 050426Z 33002KT 24/23 A2993 RMK A01 T02360225  RH  093%=      5-min Rain = 0
KES1 050427Z 33002KT 24/22 A2993 RMK A01 T02350224  RH  093%=      5-min Rain = 0
KES1 050428Z 33003KT 24/23 A2993 RMK A01 T02350225  RH  094%=      5-min Rain = 0
KES1 050429Z 32003KT 24/23 A2994 RMK A01 T02350225  RH  094%=      5-min Rain = 0
KES1 050430Z 32003KT 24/23 A2994 RMK A01 T02350225  RH  094%=      5-min Rain = 0
KES1 050431Z 31003KT 24/23 A2994 RMK A01 T02350225  RH  094%=      5-min Rain = 0
KES1 050432Z 29003KT 23/22 A2994 RMK A01 T02340224  RH  094%=      5-min Rain = 0
KES1 050433Z 29004KT 23/22 A2994 RMK A01 T02340224  RH  094%=      5-min Rain = 0
KES1 050434Z 29004KT 23/22 A2994 RMK A01 T02330224  RH  094%=      5-min Rain = 0
KES1 050435Z 28003KT 23/22 A2994 RMK A01 T02330223  RH  094%=      5-min Rain = 0
KES1 050436Z 28003KT 23/22 A2994 RMK A01 T02320223  RH  094%=      5-min Rain = 0
KES1 050437Z 27003KT 23/22 A2994 RMK A01 T02330223  RH  094%=      5-min Rain = 0
KES1 050438Z 28003KT 23/22 A2994 RMK A01 T02320222  RH  094%=      5-min Rain = 0
KES1 050439Z 28003KT 23/22 A2994 RMK A01 T02320223  RH  094%=      5-min Rain = 0
KES1 050440Z 29003KT 23/22 A2994 RMK A01 T02330223  RH  094%=      5-min Rain = 0
KES1 050441Z 29003KT 23/22 A2994 RMK A01 T02320223  RH  094%=      5-min Rain = 0
KES1 050442Z 29003KT 23/22 A2994 RMK A01 T02330223  RH  094%=      5-min Rain = 0
KES1 050443Z 29003KT 23/22 A2994 RMK A01 T02330223  RH  094%=      5-min Rain = 0
KES1 050444Z 29003KT 23/22 A2994 RMK A01 T02320223  RH  095%=      5-min Rain = 0
KES1 050445Z 28003KT 23/22 A2994 RMK A01 T02320223  RH  095%=      5-min Rain = 0
KES1 050446Z 28002KT 23/22 A2994 RMK A01 T02320223  RH  094%=      5-min Rain = 0
KES1 050447Z 29002KT 23/22 A2994 RMK A01 T02330223  RH  094%=      5-min Rain = 0
KES1 050448Z 30002KT 23/22 A2994 RMK A01 T02330223  RH  094%=      5-min Rain = 0
KES1 050449Z 30002KT 23/22 A2994 RMK A01 T02330224  RH  095%=      5-min Rain = 0
KES1 050450Z 30002KT 23/22 A2994 RMK A01 T02330224  RH  095%=      5-min Rain = 0
KES1 050451Z 30003KT 23/22 A2994 RMK A01 T02320223  RH  095%=      5-min Rain = 0
KES1 050452Z 30003KT 23/22 A2994 RMK A01 T02330223  RH  095%=      5-min Rain = 0
KES1 050453Z 30002KT 23/22 A2994 RMK A01 T02320223  RH  095%=      5-min Rain = 0
KES1 050454Z 30002KT 23/22 A2994 RMK A01 T02330224  RH  095%=      5-min Rain = 0
KES1 050455Z 31002KT 23/22 A2995 RMK A01 T02330224  RH  095%=      5-min Rain = 0
KES1 050456Z 31002KT 23/22 A2995 RMK A01 T02330224  RH  095%=      5-min Rain = 0
KES1 050457Z 31002KT 23/22 A2995 RMK A01 T02330224  RH  095%=      5-min Rain = 0
KES1 050458Z 31002KT 23/23 A2995 RMK A01 T02340225  RH  095%=      5-min Rain = 0
KES1 050459Z 31001KT 23/23 A2995 RMK A01 T02340225  RH  095%=      5-min Rain = 0

Page generated in 0.1176 seconds.